PWSweather.com
Personal Weather Stations
Station Observations
KILASHKU1
Ashkum, IL

Ashkum, IL

Lat: 40.8779862, Lon: -87.846552

Elevation: 626

Station Type: Davis Vantage Pro 2

High Low Average
Temperature 38.6°F3.7°C 12.2°F-11.0°C 27.2°F-2.7°C
Dew Point 35.6°F2.0°C 7.8°F-13.4°C 24.4°F-4.2°C
Winds 13.0 mph 20.9 kmh Calm Calm 6.0 mph NW9.7 kmh NW
Wind Gusts 26.0 mph41.8 kmh 1.0 mph1.6 kmh 13.0 mph20.9 kmh
Humidity 94% 79% 89%
Pressure 30.47 in1031.8 mb 30.11 in1019.6 mb -
Precipitation 0.00 in0.0 mm - -
Hour Temp Dew Point Humidity Winds Wind Gusts Pressure Precip Precip Rate Daily Precip Total
12:00 AM 38.6°F3.7°C 34.8°F1.6°C 86% 4.0 mph NNW6.4 kmh NNW 8.0 mph12.9 kmh 30.14 in1020.7 mb 0.00 in0.0 mm 0.00 in0.0 mm 0.00 in0.0 mm
12:02 AM 38.6°F3.7°C 34.8°F1.6°C 86% 4.0 mph NNW6.4 kmh NNW 8.0 mph12.9 kmh 30.14 in1020.7 mb 0.00 in0.0 mm 0.00 in0.0 mm 0.00 in0.0 mm
12:04 AM 38.6°F3.7°C 34.8°F1.6°C 86% 3.0 mph NNW4.8 kmh NNW 6.0 mph9.7 kmh 30.14 in1020.7 mb 0.00 in0.0 mm 0.00 in0.0 mm 0.00 in0.0 mm
12:06 AM 38.5°F3.6°C 34.7°F1.5°C 86% 4.0 mph NNW6.4 kmh NNW 6.0 mph9.7 kmh 30.14 in1020.7 mb 0.00 in0.0 mm 0.00 in0.0 mm 0.00 in0.0 mm
12:08 AM 38.5°F3.6°C 34.7°F1.5°C 86% 4.0 mph NNW6.4 kmh NNW 7.0 mph11.3 kmh 30.14 in1020.7 mb 0.00 in0.0 mm 0.00 in0.0 mm 0.00 in0.0 mm
12:10 AM 38.4°F3.6°C 34.6°F1.4°C 86% 4.0 mph NNW6.4 kmh NNW 7.0 mph11.3 kmh 30.14 in1020.7 mb 0.00 in0.0 mm 0.00 in0.0 mm 0.00 in0.0 mm
12:12 AM 38.4°F3.6°C 34.6°F1.4°C 86% 4.0 mph NNW6.4 kmh NNW 7.0 mph11.3 kmh 30.14 in1020.7 mb 0.00 in0.0 mm 0.00 in0.0 mm 0.00 in0.0 mm
12:14 AM 38.4°F3.6°C 34.6°F1.4°C 86% 4.0 mph NNW6.4 kmh NNW 7.0 mph11.3 kmh 30.14 in1020.7 mb 0.00 in0.0 mm 0.00 in0.0 mm 0.00 in0.0 mm
12:16 AM 38.4°F3.6°C 34.6°F1.4°C 86% 4.0 mph NNW6.4 kmh NNW 7.0 mph11.3 kmh 30.14 in1020.7 mb 0.00 in0.0 mm 0.00 in0.0 mm 0.00 in0.0 mm
12:18 AM 38.4°F3.6°C 34.6°F1.4°C 86% 3.0 mph NNW4.8 kmh NNW 6.0 mph9.7 kmh 30.14 in1020.7 mb 0.00 in0.0 mm 0.00 in0.0 mm 0.00 in0.0 mm
12:20 AM 38.4°F3.6°C 34.6°F1.4°C 86% 3.0 mph NNW4.8 kmh NNW 6.0 mph9.7 kmh 30.14 in1020.7 mb 0.00 in0.0 mm 0.00 in0.0 mm 0.00 in0.0 mm
12:22 AM 38.4°F3.6°C 34.6°F1.4°C 86% 3.0 mph NNW4.8 kmh NNW 5.0 mph8.0 kmh 30.13 in1020.3 mb 0.00 in0.0 mm 0.00 in0.0 mm 0.00 in0.0 mm
12:24 AM 38.4°F3.6°C 34.6°F1.4°C 86% 2.0 mph NNW3.2 kmh NNW 5.0 mph8.0 kmh 30.13 in1020.3 mb 0.00 in0.0 mm 0.00 in0.0 mm 0.00 in0.0 mm
12:26 AM 38.4°F3.6°C 34.6°F1.4°C 86% 2.0 mph NNW3.2 kmh NNW 4.0 mph6.4 kmh 30.13 in1020.3 mb 0.00 in0.0 mm 0.00 in0.0 mm 0.00 in0.0 mm
12:28 AM 38.4°F3.6°C 34.9°F1.6°C 87% 2.0 mph NNW3.2 kmh NNW 4.0 mph6.4 kmh 30.12 in1020.0 mb 0.00 in0.0 mm 0.00 in0.0 mm 0.00 in0.0 mm
12:30 AM 38.4°F3.6°C 34.9°F1.6°C 87% 2.0 mph NNW3.2 kmh NNW 4.0 mph6.4 kmh 30.11 in1019.6 mb 0.00 in0.0 mm 0.00 in0.0 mm 0.00 in0.0 mm
12:32 AM 38.4°F3.6°C 34.9°F1.6°C 87% 2.0 mph NNW3.2 kmh NNW 4.0 mph6.4 kmh 30.11 in1019.6 mb 0.00 in0.0 mm 0.00 in0.0 mm 0.00 in0.0 mm
12:34 AM 38.4°F3.6°C 34.9°F1.6°C 87% 1.0 mph NNW1.6 kmh NNW 4.0 mph6.4 kmh 30.11 in1019.6 mb 0.00 in0.0 mm 0.00 in0.0 mm 0.00 in0.0 mm
12:36 AM 38.4°F3.6°C 34.9°F1.6°C 87% 1.0 mph NNW1.6 kmh NNW 4.0 mph6.4 kmh 30.11 in1019.6 mb 0.00 in0.0 mm 0.00 in0.0 mm 0.00 in0.0 mm
12:38 AM 38.3°F3.5°C 34.8°F1.6°C 87% 1.0 mph NW1.6 kmh NW 7.0 mph11.3 kmh 30.11 in1019.6 mb 0.00 in0.0 mm 0.00 in0.0 mm 0.00 in0.0 mm
12:40 AM 38.3°F3.5°C 34.8°F1.6°C 87% 1.0 mph NW1.6 kmh NW 7.0 mph11.3 kmh 30.11 in1019.6 mb 0.00 in0.0 mm 0.00 in0.0 mm 0.00 in0.0 mm
12:42 AM 38.2°F3.4°C 34.7°F1.5°C 87% 1.0 mph NW1.6 kmh NW 7.0 mph11.3 kmh 30.11 in1019.6 mb 0.00 in0.0 mm 0.00 in0.0 mm 0.00 in0.0 mm
12:44 AM 38.2°F3.4°C 34.7°F1.5°C 87% 1.0 mph NW1.6 kmh NW 7.0 mph11.3 kmh 30.11 in1019.6 mb 0.00 in0.0 mm 0.00 in0.0 mm 0.00 in0.0 mm
12:46 AM 38.2°F3.4°C 34.7°F1.5°C 87% 1.0 mph NW1.6 kmh NW 7.0 mph11.3 kmh 30.11 in1019.6 mb 0.00 in0.0 mm 0.00 in0.0 mm 0.00 in0.0 mm
12:48 AM 38.1°F3.4°C 34.6°F1.4°C 87% 1.0 mph NNW1.6 kmh NNW 4.0 mph6.4 kmh 30.11 in1019.6 mb 0.00 in0.0 mm 0.00 in0.0 mm 0.00 in0.0 mm
12:50 AM 38.0°F3.3°C 34.5°F1.4°C 87% 1.0 mph NNW1.6 kmh NNW 6.0 mph9.7 kmh 30.11 in1019.6 mb 0.00 in0.0 mm 0.00 in0.0 mm 0.00 in0.0 mm
12:52 AM 38.0°F3.3°C 34.8°F1.6°C 88% 1.0 mph NNW1.6 kmh NNW 6.0 mph9.7 kmh 30.11 in1019.6 mb 0.00 in0.0 mm 0.00 in0.0 mm 0.00 in0.0 mm
12:54 AM 37.9°F3.3°C 34.7°F1.5°C 88% 1.0 mph NNW1.6 kmh NNW 6.0 mph9.7 kmh 30.11 in1019.6 mb 0.00 in0.0 mm 0.00 in0.0 mm 0.00 in0.0 mm
12:56 AM 37.9°F3.3°C 34.7°F1.5°C 88% 2.0 mph NNW3.2 kmh NNW 6.0 mph9.7 kmh 30.11 in1019.6 mb 0.00 in0.0 mm 0.00 in0.0 mm 0.00 in0.0 mm
12:58 AM 37.8°F3.2°C 34.6°F1.4°C 88% 1.0 mph NNW1.6 kmh NNW 6.0 mph9.7 kmh 30.11 in1019.6 mb 0.00 in0.0 mm 0.00 in0.0 mm 0.00 in0.0 mm
01:00 AM 37.8°F3.2°C 34.6°F1.4°C 88% 1.0 mph NW1.6 kmh NW 4.0 mph6.4 kmh 30.11 in1019.6 mb 0.00 in0.0 mm 0.00 in0.0 mm 0.00 in0.0 mm
01:02 AM 37.8°F3.2°C 34.8°F1.6°C 89% 1.0 mph NW1.6 kmh NW 4.0 mph6.4 kmh 30.11 in1019.6 mb 0.00 in0.0 mm 0.00 in0.0 mm 0.00 in0.0 mm
01:04 AM 37.8°F3.2°C 34.8°F1.6°C 89% 1.0 mph NW1.6 kmh NW 2.0 mph3.2 kmh 30.11 in1019.6 mb 0.00 in0.0 mm 0.00 in0.0 mm 0.00 in0.0 mm
01:06 AM 37.7°F3.2°C 34.8°F1.6°C 89% Calm Calm 2.0 mph3.2 kmh 30.11 in1019.6 mb 0.00 in0.0 mm 0.00 in0.0 mm 0.00 in0.0 mm
01:08 AM 37.8°F3.2°C 34.8°F1.6°C 89% Calm Calm 2.0 mph3.2 kmh 30.11 in1019.6 mb 0.00 in0.0 mm 0.00 in0.0 mm 0.00 in0.0 mm
01:10 AM 37.8°F3.2°C 34.8°F1.6°C 89% Calm Calm 1.0 mph1.6 kmh 30.12 in1020.0 mb 0.00 in0.0 mm 0.00 in0.0 mm 0.00 in0.0 mm
01:12 AM 37.8°F3.2°C 34.8°F1.6°C 89% Calm Calm 2.0 mph3.2 kmh 30.11 in1019.6 mb 0.00 in0.0 mm 0.00 in0.0 mm 0.00 in0.0 mm
01:14 AM 37.8°F3.2°C 34.8°F1.6°C 89% Calm Calm 3.0 mph4.8 kmh 30.11 in1019.6 mb 0.00 in0.0 mm 0.00 in0.0 mm 0.00 in0.0 mm
01:16 AM 37.9°F3.3°C 35.2°F1.8°C 90% Calm Calm 3.0 mph4.8 kmh 30.11 in1019.6 mb 0.00 in0.0 mm 0.00 in0.0 mm 0.00 in0.0 mm
01:18 AM 37.9°F3.3°C 35.2°F1.8°C 90% Calm Calm 3.0 mph4.8 kmh 30.11 in1019.6 mb 0.00 in0.0 mm 0.00 in0.0 mm 0.00 in0.0 mm
01:20 AM 38.0°F3.3°C 35.3°F1.8°C 90% Calm Calm 3.0 mph4.8 kmh 30.11 in1019.6 mb 0.00 in0.0 mm 0.00 in0.0 mm 0.00 in0.0 mm
01:22 AM 38.0°F3.3°C 35.3°F1.8°C 90% 1.0 mph NNW1.6 kmh NNW 3.0 mph4.8 kmh 30.11 in1019.6 mb 0.00 in0.0 mm 0.00 in0.0 mm 0.00 in0.0 mm
01:24 AM 38.0°F3.3°C 35.3°F1.8°C 90% 1.0 mph NW1.6 kmh NW 3.0 mph4.8 kmh 30.11 in1019.6 mb 0.00 in0.0 mm 0.00 in0.0 mm 0.00 in0.0 mm
01:26 AM 38.1°F3.4°C 35.4°F1.9°C 90% 1.0 mph NW1.6 kmh NW 4.0 mph6.4 kmh 30.11 in1019.6 mb 0.00 in0.0 mm 0.00 in0.0 mm 0.00 in0.0 mm
01:28 AM 38.1°F3.4°C 35.4°F1.9°C 90% 1.0 mph NW1.6 kmh NW 4.0 mph6.4 kmh 30.11 in1019.6 mb 0.00 in0.0 mm 0.00 in0.0 mm 0.00 in0.0 mm
01:30 AM 38.1°F3.4°C 35.4°F1.9°C 90% 2.0 mph NW3.2 kmh NW 4.0 mph6.4 kmh 30.11 in1019.6 mb 0.00 in0.0 mm 0.00 in0.0 mm 0.00 in0.0 mm
01:32 AM 38.1°F3.4°C 35.4°F1.9°C 90% 2.0 mph NW3.2 kmh NW 7.0 mph11.3 kmh 30.11 in1019.6 mb 0.00 in0.0 mm 0.00 in0.0 mm 0.00 in0.0 mm
01:34 AM 38.1°F3.4°C 35.4°F1.9°C 90% 2.0 mph NW3.2 kmh NW 7.0 mph11.3 kmh 30.11 in1019.6 mb 0.00 in0.0 mm 0.00 in0.0 mm 0.00 in0.0 mm
01:36 AM 38.1°F3.4°C 35.4°F1.9°C 90% 2.0 mph NNW3.2 kmh NNW 7.0 mph11.3 kmh 30.12 in1020.0 mb 0.00 in0.0 mm 0.00 in0.0 mm 0.00 in0.0 mm
01:38 AM 38.1°F3.4°C 35.4°F1.9°C 90% 1.0 mph NNW1.6 kmh NNW 7.0 mph11.3 kmh 30.12 in1020.0 mb 0.00 in0.0 mm 0.00 in0.0 mm 0.00 in0.0 mm
01:40 AM 38.2°F3.4°C 35.5°F1.9°C 90% 1.0 mph NNW1.6 kmh NNW 7.0 mph11.3 kmh 30.12 in1020.0 mb 0.00 in0.0 mm 0.00 in0.0 mm 0.00 in0.0 mm
01:42 AM 38.1°F3.4°C 35.4°F1.9°C 90% 1.0 mph NNW1.6 kmh NNW 4.0 mph6.4 kmh 30.12 in1020.0 mb 0.00 in0.0 mm 0.00 in0.0 mm 0.00 in0.0 mm
01:44 AM 38.2°F3.4°C 35.5°F1.9°C 90% 1.0 mph NNW1.6 kmh NNW 5.0 mph8.0 kmh 30.12 in1020.0 mb 0.00 in0.0 mm 0.00 in0.0 mm 0.00 in0.0 mm
01:46 AM 38.2°F3.4°C 35.5°F1.9°C 90% 1.0 mph NNW1.6 kmh NNW 5.0 mph8.0 kmh 30.12 in1020.0 mb 0.00 in0.0 mm 0.00 in0.0 mm 0.00 in0.0 mm
01:48 AM 38.2°F3.4°C 35.5°F1.9°C 90% 1.0 mph NNW1.6 kmh NNW 5.0 mph8.0 kmh 30.12 in1020.0 mb 0.00 in0.0 mm 0.00 in0.0 mm 0.00 in0.0 mm
01:50 AM 38.2°F3.4°C 35.5°F1.9°C 90% 1.0 mph NNW1.6 kmh NNW 5.0 mph8.0 kmh 30.13 in1020.3 mb 0.00 in0.0 mm 0.00 in0.0 mm 0.00 in0.0 mm
01:52 AM 38.2°F3.4°C 35.5°F1.9°C 90% 1.0 mph NNW1.6 kmh NNW 5.0 mph8.0 kmh 30.13 in1020.3 mb 0.00 in0.0 mm 0.00 in0.0 mm 0.00 in0.0 mm
01:54 AM 38.2°F3.4°C 35.5°F1.9°C 90% 1.0 mph NNW1.6 kmh NNW 4.0 mph6.4 kmh 30.13 in1020.3 mb 0.00 in0.0 mm 0.00 in0.0 mm 0.00 in0.0 mm
01:56 AM 38.2°F3.4°C 35.5°F1.9°C 90% 1.0 mph NNW1.6 kmh NNW 4.0 mph6.4 kmh 30.13 in1020.3 mb 0.00 in0.0 mm 0.00 in0.0 mm 0.00 in0.0 mm
01:58 AM 38.2°F3.4°C 35.5°F1.9°C 90% 2.0 mph NNW3.2 kmh NNW 5.0 mph8.0 kmh 30.13 in1020.3 mb 0.00 in0.0 mm 0.00 in0.0 mm 0.00 in0.0 mm
02:00 AM 38.1°F3.4°C 35.4°F1.9°C 90% 2.0 mph NNW3.2 kmh NNW 7.0 mph11.3 kmh 30.13 in1020.3 mb 0.00 in0.0 mm 0.00 in0.0 mm 0.00 in0.0 mm
02:02 AM 38.1°F3.4°C 35.4°F1.9°C 90% 2.0 mph NNW3.2 kmh NNW 7.0 mph11.3 kmh 30.13 in1020.3 mb 0.00 in0.0 mm 0.00 in0.0 mm 0.00 in0.0 mm
02:04 AM 38.1°F3.4°C 35.4°F1.9°C 90% 2.0 mph NNW3.2 kmh NNW 7.0 mph11.3 kmh 30.13 in1020.3 mb 0.00 in0.0 mm 0.00 in0.0 mm 0.00 in0.0 mm
02:06 AM 38.1°F3.4°C 35.4°F1.9°C 90% 2.0 mph NNW3.2 kmh NNW 7.0 mph11.3 kmh 30.13 in1020.3 mb 0.00 in0.0 mm 0.00 in0.0 mm 0.00 in0.0 mm
02:08 AM 38.1°F3.4°C 35.4°F1.9°C 90% 2.0 mph NNW3.2 kmh NNW 7.0 mph11.3 kmh 30.13 in1020.3 mb 0.00 in0.0 mm 0.00 in0.0 mm 0.00 in0.0 mm
02:10 AM 38.1°F3.4°C 35.4°F1.9°C 90% 2.0 mph NNW3.2 kmh NNW 6.0 mph9.7 kmh 30.13 in1020.3 mb 0.00 in0.0 mm 0.00 in0.0 mm 0.00 in0.0 mm
02:12 AM 38.1°F3.4°C 35.4°F1.9°C 90% 2.0 mph NNW3.2 kmh NNW 6.0 mph9.7 kmh 30.13 in1020.3 mb 0.00 in0.0 mm 0.00 in0.0 mm 0.00 in0.0 mm
02:14 AM 38.1°F3.4°C 35.4°F1.9°C 90% 2.0 mph NNW3.2 kmh NNW 6.0 mph9.7 kmh 30.14 in1020.7 mb 0.00 in0.0 mm 0.00 in0.0 mm 0.00 in0.0 mm
02:16 AM 38.1°F3.4°C 35.4°F1.9°C 90% 2.0 mph NNW3.2 kmh NNW 6.0 mph9.7 kmh 30.14 in1020.7 mb 0.00 in0.0 mm 0.00 in0.0 mm 0.00 in0.0 mm
02:18 AM 38.1°F3.4°C 35.4°F1.9°C 90% 2.0 mph NNW3.2 kmh NNW 6.0 mph9.7 kmh 30.14 in1020.7 mb 0.00 in0.0 mm 0.00 in0.0 mm 0.00 in0.0 mm
02:20 AM 38.1°F3.4°C 35.4°F1.9°C 90% 2.0 mph NNW3.2 kmh NNW 7.0 mph11.3 kmh 30.14 in1020.7 mb 0.00 in0.0 mm 0.00 in0.0 mm 0.00 in0.0 mm
02:22 AM 38.1°F3.4°C 35.4°F1.9°C 90% 2.0 mph NNW3.2 kmh NNW 7.0 mph11.3 kmh 30.14 in1020.7 mb 0.00 in0.0 mm 0.00 in0.0 mm 0.00 in0.0 mm
02:24 AM 38.1°F3.4°C 35.4°F1.9°C 90% 2.0 mph NNW3.2 kmh NNW 7.0 mph11.3 kmh 30.14 in1020.7 mb 0.00 in0.0 mm 0.00 in0.0 mm 0.00 in0.0 mm
02:26 AM 38.1°F3.4°C 35.4°F1.9°C 90% 2.0 mph NNW3.2 kmh NNW 7.0 mph11.3 kmh 30.14 in1020.7 mb 0.00 in0.0 mm 0.00 in0.0 mm 0.00 in0.0 mm
02:28 AM 38.0°F3.3°C 35.3°F1.8°C 90% 3.0 mph NNW4.8 kmh NNW 7.0 mph11.3 kmh 30.14 in1020.7 mb 0.00 in0.0 mm 0.00 in0.0 mm 0.00 in0.0 mm
02:30 AM 38.0°F3.3°C 35.3°F1.8°C 90% 3.0 mph NNW4.8 kmh NNW 8.0 mph12.9 kmh 30.14 in1020.7 mb 0.00 in0.0 mm 0.00 in0.0 mm 0.00 in0.0 mm
02:32 AM 38.0°F3.3°C 35.3°F1.8°C 90% 4.0 mph NNW6.4 kmh NNW 8.0 mph12.9 kmh 30.14 in1020.7 mb 0.00 in0.0 mm 0.00 in0.0 mm 0.00 in0.0 mm
02:34 AM 38.0°F3.3°C 35.3°F1.8°C 90% 5.0 mph NNW8.0 kmh NNW 9.0 mph14.5 kmh 30.14 in1020.7 mb 0.00 in0.0 mm 0.00 in0.0 mm 0.00 in0.0 mm
02:36 AM 38.0°F3.3°C 35.3°F1.8°C 90% 5.0 mph NNW8.0 kmh NNW 9.0 mph14.5 kmh 30.14 in1020.7 mb 0.00 in0.0 mm 0.00 in0.0 mm 0.00 in0.0 mm
02:38 AM 38.0°F3.3°C 35.3°F1.8°C 90% 6.0 mph NNW9.7 kmh NNW 9.0 mph14.5 kmh 30.14 in1020.7 mb 0.00 in0.0 mm 0.00 in0.0 mm 0.00 in0.0 mm
02:40 AM 38.0°F3.3°C 35.3°F1.8°C 90% 6.0 mph NNW9.7 kmh NNW 9.0 mph14.5 kmh 30.14 in1020.7 mb 0.00 in0.0 mm 0.00 in0.0 mm 0.00 in0.0 mm
02:42 AM 38.0°F3.3°C 35.3°F1.8°C 90% 5.0 mph NNW8.0 kmh NNW 9.0 mph14.5 kmh 30.14 in1020.7 mb 0.00 in0.0 mm 0.00 in0.0 mm 0.00 in0.0 mm
02:44 AM 38.0°F3.3°C 35.6°F2.0°C 91% 5.0 mph NNW8.0 kmh NNW 9.0 mph14.5 kmh 30.14 in1020.7 mb 0.00 in0.0 mm 0.00 in0.0 mm 0.00 in0.0 mm
02:46 AM 38.0°F3.3°C 35.3°F1.8°C 90% 5.0 mph NNW8.0 kmh NNW 9.0 mph14.5 kmh 30.14 in1020.7 mb 0.00 in0.0 mm 0.00 in0.0 mm 0.00 in0.0 mm
02:48 AM 38.0°F3.3°C 35.3°F1.8°C 90% 5.0 mph NNW8.0 kmh NNW 9.0 mph14.5 kmh 30.14 in1020.7 mb 0.00 in0.0 mm 0.00 in0.0 mm 0.00 in0.0 mm
02:50 AM 37.9°F3.3°C 35.2°F1.8°C 90% 5.0 mph NNW8.0 kmh NNW 9.0 mph14.5 kmh 30.14 in1020.7 mb 0.00 in0.0 mm 0.00 in0.0 mm 0.00 in0.0 mm
02:52 AM 37.9°F3.3°C 35.2°F1.8°C 90% 5.0 mph NNW8.0 kmh NNW 9.0 mph14.5 kmh 30.14 in1020.7 mb 0.00 in0.0 mm 0.00 in0.0 mm 0.00 in0.0 mm
02:54 AM 37.9°F3.3°C 35.2°F1.8°C 90% 5.0 mph NNW8.0 kmh NNW 9.0 mph14.5 kmh 30.14 in1020.7 mb 0.00 in0.0 mm 0.00 in0.0 mm 0.00 in0.0 mm
02:56 AM 37.9°F3.3°C 35.2°F1.8°C 90% 5.0 mph NNW8.0 kmh NNW 9.0 mph14.5 kmh 30.14 in1020.7 mb 0.00 in0.0 mm 0.00 in0.0 mm 0.00 in0.0 mm
02:58 AM 37.9°F3.3°C 35.2°F1.8°C 90% 4.0 mph NNW6.4 kmh NNW 10.0 mph16.1 kmh 30.14 in1020.7 mb 0.00 in0.0 mm 0.00 in0.0 mm 0.00 in0.0 mm
03:00 AM 37.9°F3.3°C 35.2°F1.8°C 90% 4.0 mph NNW6.4 kmh NNW 10.0 mph16.1 kmh 30.14 in1020.7 mb 0.00 in0.0 mm 0.00 in0.0 mm 0.00 in0.0 mm
03:02 AM 37.9°F3.3°C 35.2°F1.8°C 90% 5.0 mph NNW8.0 kmh NNW 11.0 mph17.7 kmh 30.14 in1020.7 mb 0.00 in0.0 mm 0.00 in0.0 mm 0.00 in0.0 mm
03:04 AM 37.9°F3.3°C 35.2°F1.8°C 90% 5.0 mph NNW8.0 kmh NNW 11.0 mph17.7 kmh 30.14 in1020.7 mb 0.00 in0.0 mm 0.00 in0.0 mm 0.00 in0.0 mm
03:06 AM 37.9°F3.3°C 35.5°F1.9°C 91% 5.0 mph NNW8.0 kmh NNW 11.0 mph17.7 kmh 30.14 in1020.7 mb 0.00 in0.0 mm 0.00 in0.0 mm 0.00 in0.0 mm
03:08 AM 37.9°F3.3°C 35.2°F1.8°C 90% 6.0 mph NNW9.7 kmh NNW 11.0 mph17.7 kmh 30.14 in1020.7 mb 0.00 in0.0 mm 0.00 in0.0 mm 0.00 in0.0 mm
03:10 AM 37.9°F3.3°C 35.2°F1.8°C 90% 6.0 mph NNW9.7 kmh NNW 11.0 mph17.7 kmh 30.14 in1020.7 mb 0.00 in0.0 mm 0.00 in0.0 mm 0.00 in0.0 mm
03:12 AM 37.9°F3.3°C 35.5°F1.9°C 91% 5.0 mph NNW8.0 kmh NNW 9.0 mph14.5 kmh 30.14 in1020.7 mb 0.00 in0.0 mm 0.00 in0.0 mm 0.00 in0.0 mm
03:14 AM 37.9°F3.3°C 35.5°F1.9°C 91% 5.0 mph NNW8.0 kmh NNW 9.0 mph14.5 kmh 30.14 in1020.7 mb 0.00 in0.0 mm 0.00 in0.0 mm 0.00 in0.0 mm
03:16 AM 37.9°F3.3°C 35.5°F1.9°C 91% 5.0 mph NNW8.0 kmh NNW 9.0 mph14.5 kmh 30.14 in1020.7 mb 0.00 in0.0 mm 0.00 in0.0 mm 0.00 in0.0 mm
03:18 AM 37.8°F3.2°C 35.4°F1.9°C 91% 5.0 mph NNW8.0 kmh NNW 9.0 mph14.5 kmh 30.14 in1020.7 mb 0.00 in0.0 mm 0.00 in0.0 mm 0.00 in0.0 mm
03:20 AM 37.9°F3.3°C 35.5°F1.9°C 91% 5.0 mph NNW8.0 kmh NNW 9.0 mph14.5 kmh 30.14 in1020.7 mb 0.00 in0.0 mm 0.00 in0.0 mm 0.00 in0.0 mm
03:22 AM 37.9°F3.3°C 35.5°F1.9°C 91% 5.0 mph NNW8.0 kmh NNW 9.0 mph14.5 kmh 30.14 in1020.7 mb 0.00 in0.0 mm 0.00 in0.0 mm 0.00 in0.0 mm
03:24 AM 37.8°F3.2°C 35.4°F1.9°C 91% 5.0 mph NNW8.0 kmh NNW 9.0 mph14.5 kmh 30.14 in1020.7 mb 0.00 in0.0 mm 0.00 in0.0 mm 0.00 in0.0 mm
03:26 AM 37.8°F3.2°C 35.4°F1.9°C 91% 4.0 mph NNW6.4 kmh NNW 9.0 mph14.5 kmh 30.13 in1020.3 mb 0.00 in0.0 mm 0.00 in0.0 mm 0.00 in0.0 mm
03:28 AM 37.8°F3.2°C 35.4°F1.9°C 91% 4.0 mph NNW6.4 kmh NNW 7.0 mph11.3 kmh 30.13 in1020.3 mb 0.00 in0.0 mm 0.00 in0.0 mm 0.00 in0.0 mm
03:30 AM 37.8°F3.2°C 35.4°F1.9°C 91% 4.0 mph NNW6.4 kmh NNW 10.0 mph16.1 kmh 30.13 in1020.3 mb 0.00 in0.0 mm 0.00 in0.0 mm 0.00 in0.0 mm
03:32 AM 37.8°F3.2°C 35.4°F1.9°C 91% 4.0 mph NNW6.4 kmh NNW 10.0 mph16.1 kmh 30.13 in1020.3 mb 0.00 in0.0 mm 0.00 in0.0 mm 0.00 in0.0 mm
03:34 AM 37.8°F3.2°C 35.4°F1.9°C 91% 4.0 mph NNW6.4 kmh NNW 10.0 mph16.1 kmh 30.13 in1020.3 mb 0.00 in0.0 mm 0.00 in0.0 mm 0.00 in0.0 mm
03:36 AM 37.8°F3.2°C 35.4°F1.9°C 91% 5.0 mph NNW8.0 kmh NNW 10.0 mph16.1 kmh 30.13 in1020.3 mb 0.00 in0.0 mm 0.00 in0.0 mm 0.00 in0.0 mm
03:38 AM 37.8°F3.2°C 35.4°F1.9°C 91% 5.0 mph NNW8.0 kmh NNW 10.0 mph16.1 kmh 30.13 in1020.3 mb 0.00 in0.0 mm 0.00 in0.0 mm 0.00 in0.0 mm
03:40 AM 37.8°F3.2°C 35.4°F1.9°C 91% 5.0 mph NNW8.0 kmh NNW 10.0 mph16.1 kmh 30.13 in1020.3 mb 0.00 in0.0 mm 0.00 in0.0 mm 0.00 in0.0 mm
03:42 AM 37.8°F3.2°C 35.4°F1.9°C 91% 5.0 mph NNW8.0 kmh NNW 10.0 mph16.1 kmh 30.13 in1020.3 mb 0.00 in0.0 mm 0.00 in0.0 mm 0.00 in0.0 mm
03:44 AM 37.8°F3.2°C 35.4°F1.9°C 91% 5.0 mph NNW8.0 kmh NNW 10.0 mph16.1 kmh 30.13 in1020.3 mb 0.00 in0.0 mm 0.00 in0.0 mm 0.00 in0.0 mm
03:46 AM 37.8°F3.2°C 35.4°F1.9°C 91% 4.0 mph NNW6.4 kmh NNW 9.0 mph14.5 kmh 30.12 in1020.0 mb 0.00 in0.0 mm 0.00 in0.0 mm 0.00 in0.0 mm
03:48 AM 37.8°F3.2°C 35.4°F1.9°C 91% 4.0 mph NNW6.4 kmh NNW 8.0 mph12.9 kmh 30.12 in1020.0 mb 0.00 in0.0 mm 0.00 in0.0 mm 0.00 in0.0 mm
03:50 AM 37.8°F3.2°C 35.4°F1.9°C 91% 3.0 mph NNW4.8 kmh NNW 8.0 mph12.9 kmh 30.12 in1020.0 mb 0.00 in0.0 mm 0.00 in0.0 mm 0.00 in0.0 mm
03:52 AM 37.8°F3.2°C 35.4°F1.9°C 91% 3.0 mph NNW4.8 kmh NNW 8.0 mph12.9 kmh 30.12 in1020.0 mb 0.00 in0.0 mm 0.00 in0.0 mm 0.00 in0.0 mm
03:54 AM 37.8°F3.2°C 35.4°F1.9°C 91% 3.0 mph NNW4.8 kmh NNW 8.0 mph12.9 kmh 30.13 in1020.3 mb 0.00 in0.0 mm 0.00 in0.0 mm 0.00 in0.0 mm
03:56 AM 37.8°F3.2°C 35.4°F1.9°C 91% 3.0 mph NNW4.8 kmh NNW 8.0 mph12.9 kmh 30.13 in1020.3 mb 0.00 in0.0 mm 0.00 in0.0 mm 0.00 in0.0 mm
03:58 AM 37.8°F3.2°C 35.4°F1.9°C 91% 3.0 mph NNW4.8 kmh NNW 8.0 mph12.9 kmh 30.13 in1020.3 mb 0.00 in0.0 mm 0.00 in0.0 mm 0.00 in0.0 mm
04:00 AM 37.7°F3.2°C 35.3°F1.8°C 91% 3.0 mph NNW4.8 kmh NNW 8.0 mph12.9 kmh 30.14 in1020.7 mb 0.00 in0.0 mm 0.00 in0.0 mm 0.00 in0.0 mm
04:02 AM 37.7°F3.2°C 35.3°F1.8°C 91% 4.0 mph NNW6.4 kmh NNW 8.0 mph12.9 kmh 30.14 in1020.7 mb 0.00 in0.0 mm 0.00 in0.0 mm 0.00 in0.0 mm
04:04 AM 37.7°F3.2°C 35.3°F1.8°C 91% 4.0 mph NNW6.4 kmh NNW 8.0 mph12.9 kmh 30.14 in1020.7 mb 0.00 in0.0 mm 0.00 in0.0 mm 0.00 in0.0 mm
04:06 AM 37.7°F3.2°C 35.3°F1.8°C 91% 4.0 mph NNW6.4 kmh NNW 8.0 mph12.9 kmh 30.14 in1020.7 mb 0.00 in0.0 mm 0.00 in0.0 mm 0.00 in0.0 mm
04:08 AM 37.7°F3.2°C 35.3°F1.8°C 91% 4.0 mph NNW6.4 kmh NNW 8.0 mph12.9 kmh 30.14 in1020.7 mb 0.00 in0.0 mm 0.00 in0.0 mm 0.00 in0.0 mm
04:10 AM 37.7°F3.2°C 35.3°F1.8°C 91% 4.0 mph NNW6.4 kmh NNW 8.0 mph12.9 kmh 30.14 in1020.7 mb 0.00 in0.0 mm 0.00 in0.0 mm 0.00 in0.0 mm
04:12 AM 37.7°F3.2°C 35.3°F1.8°C 91% 4.0 mph NNW6.4 kmh NNW 8.0 mph12.9 kmh 30.14 in1020.7 mb 0.00 in0.0 mm 0.00 in0.0 mm 0.00 in0.0 mm
04:14 AM 37.7°F3.2°C 35.3°F1.8°C 91% 4.0 mph NNW6.4 kmh NNW 8.0 mph12.9 kmh 30.13 in1020.3 mb 0.00 in0.0 mm 0.00 in0.0 mm 0.00 in0.0 mm
04:16 AM 37.7°F3.2°C 35.3°F1.8°C 91% 4.0 mph NNW6.4 kmh NNW 8.0 mph12.9 kmh 30.14 in1020.7 mb 0.00 in0.0 mm 0.00 in0.0 mm 0.00 in0.0 mm
04:18 AM 37.7°F3.2°C 35.3°F1.8°C 91% 4.0 mph NNW6.4 kmh NNW 8.0 mph12.9 kmh 30.14 in1020.7 mb 0.00 in0.0 mm 0.00 in0.0 mm 0.00 in0.0 mm
04:20 AM 37.7°F3.2°C 35.3°F1.8°C 91% 4.0 mph NNW6.4 kmh NNW 8.0 mph12.9 kmh 30.14 in1020.7 mb 0.00 in0.0 mm 0.00 in0.0 mm 0.00 in0.0 mm
04:22 AM 37.7°F3.2°C 35.3°F1.8°C 91% 4.0 mph NNW6.4 kmh NNW 8.0 mph12.9 kmh 30.13 in1020.3 mb 0.00 in0.0 mm 0.00 in0.0 mm 0.00 in0.0 mm
04:24 AM 37.7°F3.2°C 35.3°F1.8°C 91% 4.0 mph NNW6.4 kmh NNW 8.0 mph12.9 kmh 30.13 in1020.3 mb 0.00 in0.0 mm 0.00 in0.0 mm 0.00 in0.0 mm
04:26 AM 37.7°F3.2°C 35.3°F1.8°C 91% 4.0 mph NNW6.4 kmh NNW 8.0 mph12.9 kmh 30.13 in1020.3 mb 0.00 in0.0 mm 0.00 in0.0 mm 0.00 in0.0 mm
04:28 AM 37.6°F3.1°C 35.2°F1.8°C 91% 4.0 mph NNW6.4 kmh NNW 8.0 mph12.9 kmh 30.13 in1020.3 mb 0.00 in0.0 mm 0.00 in0.0 mm 0.00 in0.0 mm
04:30 AM 37.6°F3.1°C 35.2°F1.8°C 91% 4.0 mph NNW6.4 kmh NNW 8.0 mph12.9 kmh 30.13 in1020.3 mb 0.00 in0.0 mm 0.00 in0.0 mm 0.00 in0.0 mm
04:32 AM 37.5°F3.1°C 35.1°F1.7°C 91% 4.0 mph NNW6.4 kmh NNW 8.0 mph12.9 kmh 30.13 in1020.3 mb 0.00 in0.0 mm 0.00 in0.0 mm 0.00 in0.0 mm
04:34 AM 37.6°F3.1°C 35.2°F1.8°C 91% 3.0 mph NNW4.8 kmh NNW 4.0 mph6.4 kmh 30.13 in1020.3 mb 0.00 in0.0 mm 0.00 in0.0 mm 0.00 in0.0 mm
04:36 AM 37.6°F3.1°C 35.2°F1.8°C 91% 4.0 mph NNW6.4 kmh NNW 10.0 mph16.1 kmh 30.13 in1020.3 mb 0.00 in0.0 mm 0.00 in0.0 mm 0.00 in0.0 mm
04:38 AM 37.5°F3.1°C 35.1°F1.7°C 91% 3.0 mph NNW4.8 kmh NNW 10.0 mph16.1 kmh 30.13 in1020.3 mb 0.00 in0.0 mm 0.00 in0.0 mm 0.00 in0.0 mm
04:40 AM 37.5°F3.1°C 35.1°F1.7°C 91% 4.0 mph NNW6.4 kmh NNW 11.0 mph17.7 kmh 30.13 in1020.3 mb 0.00 in0.0 mm 0.00 in0.0 mm 0.00 in0.0 mm
04:42 AM 37.4°F3.0°C 35.0°F1.7°C 91% 5.0 mph NNW8.0 kmh NNW 11.0 mph17.7 kmh 30.13 in1020.3 mb 0.00 in0.0 mm 0.00 in0.0 mm 0.00 in0.0 mm
04:44 AM 37.4°F3.0°C 35.0°F1.7°C 91% 5.0 mph NNW8.0 kmh NNW 11.0 mph17.7 kmh 30.13 in1020.3 mb 0.00 in0.0 mm 0.00 in0.0 mm 0.00 in0.0 mm
04:46 AM 37.3°F2.9°C 34.9°F1.6°C 91% 6.0 mph NNW9.7 kmh NNW 11.0 mph17.7 kmh 30.13 in1020.3 mb 0.00 in0.0 mm 0.00 in0.0 mm 0.00 in0.0 mm
04:48 AM 37.3°F2.9°C 34.9°F1.6°C 91% 6.0 mph NNW9.7 kmh NNW 11.0 mph17.7 kmh 30.13 in1020.3 mb 0.00 in0.0 mm 0.00 in0.0 mm 0.00 in0.0 mm
04:50 AM 37.3°F2.9°C 34.9°F1.6°C 91% 5.0 mph NNW8.0 kmh NNW 11.0 mph17.7 kmh 30.12 in1020.0 mb 0.00 in0.0 mm 0.00 in0.0 mm 0.00 in0.0 mm
04:52 AM 37.2°F2.9°C 34.8°F1.6°C 91% 5.0 mph NNW8.0 kmh NNW 9.0 mph14.5 kmh 30.13 in1020.3 mb 0.00 in0.0 mm 0.00 in0.0 mm 0.00 in0.0 mm
04:54 AM 37.2°F2.9°C 34.8°F1.6°C 91% 5.0 mph NNW8.0 kmh NNW 9.0 mph14.5 kmh 30.13 in1020.3 mb 0.00 in0.0 mm 0.00 in0.0 mm 0.00 in0.0 mm
04:56 AM 37.1°F2.8°C 34.7°F1.5°C 91% 5.0 mph NNW8.0 kmh NNW 9.0 mph14.5 kmh 30.13 in1020.3 mb 0.00 in0.0 mm 0.00 in0.0 mm 0.00 in0.0 mm
04:58 AM 37.1°F2.8°C 34.7°F1.5°C 91% 5.0 mph NNW8.0 kmh NNW 9.0 mph14.5 kmh 30.13 in1020.3 mb 0.00 in0.0 mm 0.00 in0.0 mm 0.00 in0.0 mm
05:00 AM 37.1°F2.8°C 35.0°F1.7°C 92% 4.0 mph NNW6.4 kmh NNW 8.0 mph12.9 kmh 30.13 in1020.3 mb 0.00 in0.0 mm 0.00 in0.0 mm 0.00 in0.0 mm
05:02 AM 37.1°F2.8°C 35.0°F1.7°C 92% 4.0 mph NNW6.4 kmh NNW 9.0 mph14.5 kmh 30.13 in1020.3 mb 0.00 in0.0 mm 0.00 in0.0 mm 0.00 in0.0 mm
05:04 AM 37.1°F2.8°C 35.0°F1.7°C 92% 4.0 mph NNW6.4 kmh NNW 9.0 mph14.5 kmh 30.13 in1020.3 mb 0.00 in0.0 mm 0.00 in0.0 mm 0.00 in0.0 mm
05:06 AM 37.2°F2.9°C 35.1°F1.7°C 92% 4.0 mph NNW6.4 kmh NNW 9.0 mph14.5 kmh 30.13 in1020.3 mb 0.00 in0.0 mm 0.00 in0.0 mm 0.00 in0.0 mm
05:08 AM 37.2°F2.9°C 35.1°F1.7°C 92% 4.0 mph NNW6.4 kmh NNW 10.0 mph16.1 kmh 30.13 in1020.3 mb 0.00 in0.0 mm 0.00 in0.0 mm 0.00 in0.0 mm
05:10 AM 37.2°F2.9°C 35.1°F1.7°C 92% 4.0 mph NNW6.4 kmh NNW 10.0 mph16.1 kmh 30.13 in1020.3 mb 0.00 in0.0 mm 0.00 in0.0 mm 0.00 in0.0 mm
05:12 AM 37.2°F2.9°C 35.1°F1.7°C 92% 4.0 mph NNW6.4 kmh NNW 10.0 mph16.1 kmh 30.13 in1020.3 mb 0.00 in0.0 mm 0.00 in0.0 mm 0.00 in0.0 mm
05:14 AM 37.2°F2.9°C 35.1°F1.7°C 92% 4.0 mph NNW6.4 kmh NNW 10.0 mph16.1 kmh 30.13 in1020.3 mb 0.00 in0.0 mm 0.00 in0.0 mm 0.00 in0.0 mm
05:16 AM 37.2°F2.9°C 35.1°F1.7°C 92% 4.0 mph NNW6.4 kmh NNW 10.0 mph16.1 kmh 30.13 in1020.3 mb 0.00 in0.0 mm 0.00 in0.0 mm 0.00 in0.0 mm
05:18 AM 37.3°F2.9°C 35.2°F1.8°C 92% 4.0 mph NNW6.4 kmh NNW 8.0 mph12.9 kmh 30.13 in1020.3 mb 0.00 in0.0 mm 0.00 in0.0 mm 0.00 in0.0 mm
05:20 AM 37.3°F2.9°C 35.2°F1.8°C 92% 4.0 mph NNW6.4 kmh NNW 8.0 mph12.9 kmh 30.14 in1020.7 mb 0.00 in0.0 mm 0.00 in0.0 mm 0.00 in0.0 mm
05:22 AM 37.3°F2.9°C 35.2°F1.8°C 92% 4.0 mph NNW6.4 kmh NNW 8.0 mph12.9 kmh 30.13 in1020.3 mb 0.00 in0.0 mm 0.00 in0.0 mm 0.00 in0.0 mm
05:24 AM 37.3°F2.9°C 35.2°F1.8°C 92% 3.0 mph NNW4.8 kmh NNW 8.0 mph12.9 kmh 30.14 in1020.7 mb 0.00 in0.0 mm 0.00 in0.0 mm 0.00 in0.0 mm
05:26 AM 37.4°F3.0°C 35.3°F1.8°C 92% 3.0 mph NNW4.8 kmh NNW 8.0 mph12.9 kmh 30.13 in1020.3 mb 0.00 in0.0 mm 0.00 in0.0 mm 0.00 in0.0 mm
05:28 AM 37.4°F3.0°C 35.3°F1.8°C 92% 3.0 mph NNW4.8 kmh NNW 8.0 mph12.9 kmh 30.14 in1020.7 mb 0.00 in0.0 mm 0.00 in0.0 mm 0.00 in0.0 mm
05:30 AM 37.4°F3.0°C 35.3°F1.8°C 92% 3.0 mph NNW4.8 kmh NNW 9.0 mph14.5 kmh 30.14 in1020.7 mb 0.00 in0.0 mm 0.00 in0.0 mm 0.00 in0.0 mm
05:32 AM 37.4°F3.0°C 35.3°F1.8°C 92% 3.0 mph NNW4.8 kmh NNW 9.0 mph14.5 kmh 30.14 in1020.7 mb 0.00 in0.0 mm 0.00 in0.0 mm 0.00 in0.0 mm
05:34 AM 37.4°F3.0°C 35.0°F1.7°C 91% 3.0 mph NNW4.8 kmh NNW 9.0 mph14.5 kmh 30.14 in1020.7 mb 0.00 in0.0 mm 0.00 in0.0 mm 0.00 in0.0 mm
05:36 AM 37.4°F3.0°C 35.0°F1.7°C 91% 3.0 mph NNW4.8 kmh NNW 9.0 mph14.5 kmh 30.14 in1020.7 mb 0.00 in0.0 mm 0.00 in0.0 mm 0.00 in0.0 mm
05:38 AM 37.4°F3.0°C 35.0°F1.7°C 91% 3.0 mph NNW4.8 kmh NNW 9.0 mph14.5 kmh 30.14 in1020.7 mb 0.00 in0.0 mm 0.00 in0.0 mm 0.00 in0.0 mm
05:40 AM 37.4°F3.0°C 35.0°F1.7°C 91% 3.0 mph NNW4.8 kmh NNW 6.0 mph9.7 kmh 30.14 in1020.7 mb 0.00 in0.0 mm 0.00 in0.0 mm 0.00 in0.0 mm
05:42 AM 37.4°F3.0°C 35.0°F1.7°C 91% 2.0 mph NNW3.2 kmh NNW 6.0 mph9.7 kmh 30.14 in1020.7 mb 0.00 in0.0 mm 0.00 in0.0 mm 0.00 in0.0 mm
05:44 AM 37.4°F3.0°C 35.0°F1.7°C 91% 3.0 mph NNW4.8 kmh NNW 6.0 mph9.7 kmh 30.14 in1020.7 mb 0.00 in0.0 mm 0.00 in0.0 mm 0.00 in0.0 mm
05:46 AM 37.4°F3.0°C 35.0°F1.7°C 91% 3.0 mph NNW4.8 kmh NNW 6.0 mph9.7 kmh 30.14 in1020.7 mb 0.00 in0.0 mm 0.00 in0.0 mm 0.00 in0.0 mm
05:48 AM 37.4°F3.0°C 35.0°F1.7°C 91% 3.0 mph NNW4.8 kmh NNW 7.0 mph11.3 kmh 30.14 in1020.7 mb 0.00 in0.0 mm 0.00 in0.0 mm 0.00 in0.0 mm
05:50 AM 37.3°F2.9°C 34.9°F1.6°C 91% 3.0 mph NNW4.8 kmh NNW 7.0 mph11.3 kmh 30.14 in1020.7 mb 0.00 in0.0 mm 0.00 in0.0 mm 0.00 in0.0 mm
05:52 AM 37.3°F2.9°C 34.9°F1.6°C 91% 3.0 mph NNW4.8 kmh NNW 7.0 mph11.3 kmh 30.13 in1020.3 mb 0.00 in0.0 mm 0.00 in0.0 mm 0.00 in0.0 mm
05:54 AM 37.3°F2.9°C 34.9°F1.6°C 91% 2.0 mph NNW3.2 kmh NNW 7.0 mph11.3 kmh 30.13 in1020.3 mb 0.00 in0.0 mm 0.00 in0.0 mm 0.00 in0.0 mm
05:56 AM 37.3°F2.9°C 34.9°F1.6°C 91% 1.0 mph NNW1.6 kmh NNW 7.0 mph11.3 kmh 30.13 in1020.3 mb 0.00 in0.0 mm 0.00 in0.0 mm 0.00 in0.0 mm
05:58 AM 37.3°F2.9°C 34.9°F1.6°C 91% 1.0 mph NNW1.6 kmh NNW 5.0 mph8.0 kmh 30.14 in1020.7 mb 0.00 in0.0 mm 0.00 in0.0 mm 0.00 in0.0 mm
06:00 AM 37.3°F2.9°C 34.9°F1.6°C 91% 1.0 mph NNW1.6 kmh NNW 5.0 mph8.0 kmh 30.14 in1020.7 mb 0.00 in0.0 mm 0.00 in0.0 mm 0.00 in0.0 mm
06:02 AM 37.3°F2.9°C 34.9°F1.6°C 91% 1.0 mph NNW1.6 kmh NNW 5.0 mph8.0 kmh 30.13 in1020.3 mb 0.00 in0.0 mm 0.00 in0.0 mm 0.00 in0.0 mm
06:04 AM 37.3°F2.9°C 34.9°F1.6°C 91% 1.0 mph NNW1.6 kmh NNW 5.0 mph8.0 kmh 30.14 in1020.7 mb 0.00 in0.0 mm 0.00 in0.0 mm 0.00 in0.0 mm
06:06 AM 37.2°F2.9°C 34.8°F1.6°C 91% 1.0 mph N1.6 kmh N 5.0 mph8.0 kmh 30.14 in1020.7 mb 0.00 in0.0 mm 0.00 in0.0 mm 0.00 in0.0 mm
06:08 AM 37.2°F2.9°C 34.8°F1.6°C 91% 1.0 mph NE1.6 kmh NE 4.0 mph6.4 kmh 30.14 in1020.7 mb 0.00 in0.0 mm 0.00 in0.0 mm 0.00 in0.0 mm
06:10 AM 37.2°F2.9°C 34.8°F1.6°C 91% Calm Calm 4.0 mph6.4 kmh 30.14 in1020.7 mb 0.00 in0.0 mm 0.00 in0.0 mm 0.00 in0.0 mm
06:12 AM 37.1°F2.8°C 34.7°F1.5°C 91% Calm Calm 5.0 mph8.0 kmh 30.14 in1020.7 mb 0.00 in0.0 mm 0.00 in0.0 mm 0.00 in0.0 mm
06:14 AM 37.1°F2.8°C 34.7°F1.5°C 91% 1.0 mph NE1.6 kmh NE 6.0 mph9.7 kmh 30.14 in1020.7 mb 0.00 in0.0 mm 0.00 in0.0 mm 0.00 in0.0 mm
06:16 AM 37.0°F2.8°C 34.6°F1.4°C 91% 1.0 mph NNE1.6 kmh NNE 6.0 mph9.7 kmh 30.15 in1021.0 mb 0.00 in0.0 mm 0.00 in0.0 mm 0.00 in0.0 mm
06:18 AM 37.0°F2.8°C 34.6°F1.4°C 91% 1.0 mph NNW1.6 kmh NNW 6.0 mph9.7 kmh 30.15 in1021.0 mb 0.00 in0.0 mm 0.00 in0.0 mm 0.00 in0.0 mm
06:20 AM 36.9°F2.7°C 34.5°F1.4°C 91% 1.0 mph NW1.6 kmh NW 6.0 mph9.7 kmh 30.15 in1021.0 mb 0.00 in0.0 mm 0.00 in0.0 mm 0.00 in0.0 mm
06:22 AM 36.8°F2.7°C 34.4°F1.3°C 91% 1.0 mph NW1.6 kmh NW 6.0 mph9.7 kmh 30.15 in1021.0 mb 0.00 in0.0 mm 0.00 in0.0 mm 0.00 in0.0 mm
06:24 AM 36.8°F2.7°C 34.4°F1.3°C 91% 1.0 mph NW1.6 kmh NW 6.0 mph9.7 kmh 30.15 in1021.0 mb 0.00 in0.0 mm 0.00 in0.0 mm 0.00 in0.0 mm
06:26 AM 36.7°F2.6°C 34.3°F1.3°C 91% 1.0 mph NW1.6 kmh NW 6.0 mph9.7 kmh 30.14 in1020.7 mb 0.00 in0.0 mm 0.00 in0.0 mm 0.00 in0.0 mm
06:28 AM 36.6°F2.6°C 34.2°F1.2°C 91% 1.0 mph NNW1.6 kmh NNW 6.0 mph9.7 kmh 30.15 in1021.0 mb 0.00 in0.0 mm 0.00 in0.0 mm 0.00 in0.0 mm
06:42 AM 36.2°F2.3°C 33.8°F1.0°C 91% Calm Calm 3.0 mph4.8 kmh 30.14 in1020.7 mb 0.00 in0.0 mm 0.00 in0.0 mm 0.00 in0.0 mm
06:44 AM 36.2°F2.3°C 33.8°F1.0°C 91% Calm Calm 3.0 mph4.8 kmh 30.14 in1020.7 mb 0.00 in0.0 mm 0.00 in0.0 mm 0.00 in0.0 mm
06:46 AM 36.2°F2.3°C 34.1°F1.2°C 92% Calm Calm 3.0 mph4.8 kmh 30.15 in1021.0 mb 0.00 in0.0 mm 0.00 in0.0 mm 0.00 in0.0 mm
06:48 AM 36.1°F2.3°C 34.0°F1.1°C 92% Calm Calm 6.0 mph9.7 kmh 30.15 in1021.0 mb 0.00 in0.0 mm 0.00 in0.0 mm 0.00 in0.0 mm
06:50 AM 36.1°F2.3°C 33.7°F0.9°C 91% 1.0 mph NNW1.6 kmh NNW 6.0 mph9.7 kmh 30.15 in1021.0 mb 0.00 in0.0 mm 0.00 in0.0 mm 0.00 in0.0 mm
06:52 AM 36.1°F2.3°C 34.0°F1.1°C 92% 1.0 mph NNW1.6 kmh NNW 6.0 mph9.7 kmh 30.15 in1021.0 mb 0.00 in0.0 mm 0.00 in0.0 mm 0.00 in0.0 mm
06:54 AM 36.1°F2.3°C 34.0°F1.1°C 92% 2.0 mph NNW3.2 kmh NNW 11.0 mph17.7 kmh 30.15 in1021.0 mb 0.00 in0.0 mm 0.00 in0.0 mm 0.00 in0.0 mm
06:56 AM 36.0°F2.2°C 33.9°F1.1°C 92% 3.0 mph NNW4.8 kmh NNW 11.0 mph17.7 kmh 30.15 in1021.0 mb 0.00 in0.0 mm 0.00 in0.0 mm 0.00 in0.0 mm
06:58 AM 35.9°F2.2°C 33.8°F1.0°C 92% 4.0 mph NNW6.4 kmh NNW 11.0 mph17.7 kmh 30.15 in1021.0 mb 0.00 in0.0 mm 0.00 in0.0 mm 0.00 in0.0 mm
07:00 AM 35.8°F2.1°C 33.7°F0.9°C 92% 5.0 mph NNW8.0 kmh NNW 11.0 mph17.7 kmh 30.15 in1021.0 mb 0.00 in0.0 mm 0.00 in0.0 mm 0.00 in0.0 mm
07:02 AM 35.7°F2.1°C 33.6°F0.9°C 92% 5.0 mph NNW8.0 kmh NNW 11.0 mph17.7 kmh 30.15 in1021.0 mb 0.00 in0.0 mm 0.00 in0.0 mm 0.00 in0.0 mm
07:04 AM 35.7°F2.1°C 33.6°F0.9°C 92% 6.0 mph NNE9.7 kmh NNE 7.0 mph11.3 kmh 30.15 in1021.0 mb 0.00 in0.0 mm 0.00 in0.0 mm 0.00 in0.0 mm
07:06 AM 35.6°F2.0°C 33.5°F0.8°C 92% 6.0 mph N9.7 kmh N 7.0 mph11.3 kmh 30.15 in1021.0 mb 0.00 in0.0 mm 0.00 in0.0 mm 0.00 in0.0 mm
07:08 AM 35.5°F1.9°C 33.4°F0.8°C 92% 5.0 mph N8.0 kmh N 10.0 mph16.1 kmh 30.15 in1021.0 mb 0.00 in0.0 mm 0.00 in0.0 mm 0.00 in0.0 mm
07:10 AM 35.4°F1.9°C 33.3°F0.7°C 92% 6.0 mph N9.7 kmh N 10.0 mph16.1 kmh 30.15 in1021.0 mb 0.00 in0.0 mm 0.00 in0.0 mm 0.00 in0.0 mm
07:12 AM 35.3°F1.8°C 33.2°F0.7°C 92% 5.0 mph N8.0 kmh N 10.0 mph16.1 kmh 30.15 in1021.0 mb 0.00 in0.0 mm 0.00 in0.0 mm 0.00 in0.0 mm
07:14 AM 35.2°F1.8°C 33.1°F0.6°C 92% 5.0 mph NNW8.0 kmh NNW 10.0 mph16.1 kmh 30.15 in1021.0 mb 0.00 in0.0 mm 0.00 in0.0 mm 0.00 in0.0 mm
07:16 AM 35.2°F1.8°C 33.1°F0.6°C 92% 4.0 mph NNW6.4 kmh NNW 10.0 mph16.1 kmh 30.15 in1021.0 mb 0.00 in0.0 mm 0.00 in0.0 mm 0.00 in0.0 mm
07:18 AM 35.1°F1.7°C 33.0°F0.6°C 92% 4.0 mph NNW6.4 kmh NNW 8.0 mph12.9 kmh 30.15 in1021.0 mb 0.00 in0.0 mm 0.00 in0.0 mm 0.00 in0.0 mm
07:20 AM 35.0°F1.7°C 33.2°F0.7°C 93% 4.0 mph NNW6.4 kmh NNW 8.0 mph12.9 kmh 30.15 in1021.0 mb 0.00 in0.0 mm 0.00 in0.0 mm 0.00 in0.0 mm
07:22 AM 35.0°F1.7°C 33.2°F0.7°C 93% 4.0 mph NNW6.4 kmh NNW 8.0 mph12.9 kmh 30.15 in1021.0 mb 0.00 in0.0 mm 0.00 in0.0 mm 0.00 in0.0 mm
07:24 AM 34.9°F1.6°C 33.1°F0.6°C 93% 4.0 mph NNW6.4 kmh NNW 8.0 mph12.9 kmh 30.15 in1021.0 mb 0.00 in0.0 mm 0.00 in0.0 mm 0.00 in0.0 mm
07:26 AM 34.8°F1.6°C 33.0°F0.6°C 93% 4.0 mph NNW6.4 kmh NNW 8.0 mph12.9 kmh 30.15 in1021.0 mb 0.00 in0.0 mm 0.00 in0.0 mm 0.00 in0.0 mm
07:28 AM 34.8°F1.6°C 33.0°F0.6°C 93% 3.0 mph NNW4.8 kmh NNW 8.0 mph12.9 kmh 30.16 in1021.3 mb 0.00 in0.0 mm 0.00 in0.0 mm 0.00 in0.0 mm
07:30 AM 34.7°F1.5°C 32.9°F0.5°C 93% 4.0 mph NNW6.4 kmh NNW 8.0 mph12.9 kmh 30.16 in1021.3 mb 0.00 in0.0 mm 0.00 in0.0 mm 0.00 in0.0 mm
07:32 AM 34.5°F1.4°C 32.7°F0.4°C 93% 4.0 mph NNW6.4 kmh NNW 9.0 mph14.5 kmh 30.16 in1021.3 mb 0.00 in0.0 mm 0.00 in0.0 mm 0.00 in0.0 mm
07:34 AM 34.3°F1.3°C 32.5°F0.3°C 93% 4.0 mph NNW6.4 kmh NNW 9.0 mph14.5 kmh 30.16 in1021.3 mb 0.00 in0.0 mm 0.00 in0.0 mm 0.00 in0.0 mm
07:36 AM 34.2°F1.2°C 32.4°F0.2°C 93% 4.0 mph NNW6.4 kmh NNW 9.0 mph14.5 kmh 30.16 in1021.3 mb 0.00 in0.0 mm 0.00 in0.0 mm 0.00 in0.0 mm
07:38 AM 34.1°F1.2°C 32.3°F0.2°C 93% 4.0 mph NNW6.4 kmh NNW 11.0 mph17.7 kmh 30.16 in1021.3 mb 0.00 in0.0 mm 0.00 in0.0 mm 0.00 in0.0 mm
07:40 AM 33.9°F1.1°C 32.1°F0.1°C 93% 4.0 mph NNW6.4 kmh NNW 11.0 mph17.7 kmh 30.16 in1021.3 mb 0.00 in0.0 mm 0.00 in0.0 mm 0.00 in0.0 mm
07:42 AM 33.8°F1.0°C 32.0°F0.0°C 93% 4.0 mph NNW6.4 kmh NNW 11.0 mph17.7 kmh 30.16 in1021.3 mb 0.00 in0.0 mm 0.00 in0.0 mm 0.00 in0.0 mm
07:44 AM 33.7°F0.9°C 31.9°F-0.1°C 93% 3.0 mph NNW4.8 kmh NNW 11.0 mph17.7 kmh 30.16 in1021.3 mb 0.00 in0.0 mm 0.00 in0.0 mm 0.00 in0.0 mm
07:46 AM 33.6°F0.9°C 31.8°F-0.1°C 93% 4.0 mph NNW6.4 kmh NNW 11.0 mph17.7 kmh 30.16 in1021.3 mb 0.00 in0.0 mm 0.00 in0.0 mm 0.00 in0.0 mm
07:48 AM 33.4°F0.8°C 31.6°F-0.2°C 93% 4.0 mph NNW6.4 kmh NNW 10.0 mph16.1 kmh 30.16 in1021.3 mb 0.00 in0.0 mm 0.00 in0.0 mm 0.00 in0.0 mm
07:50 AM 33.2°F0.7°C 31.4°F-0.3°C 93% 5.0 mph NNW8.0 kmh NNW 10.0 mph16.1 kmh 30.16 in1021.3 mb 0.00 in0.0 mm 0.00 in0.0 mm 0.00 in0.0 mm
07:52 AM 32.9°F0.5°C 31.1°F-0.5°C 93% 5.0 mph NNW8.0 kmh NNW 11.0 mph17.7 kmh 30.16 in1021.3 mb 0.00 in0.0 mm 0.00 in0.0 mm 0.00 in0.0 mm
07:54 AM 32.7°F0.4°C 30.9°F-0.6°C 93% 6.0 mph NNW9.7 kmh NNW 11.0 mph17.7 kmh 30.16 in1021.3 mb 0.00 in0.0 mm 0.00 in0.0 mm 0.00 in0.0 mm
07:56 AM 32.4°F0.2°C 30.6°F-0.8°C 93% 6.0 mph NNW9.7 kmh NNW 11.0 mph17.7 kmh 30.16 in1021.3 mb 0.00 in0.0 mm 0.00 in0.0 mm 0.00 in0.0 mm
07:58 AM 32.2°F0.1°C 30.4°F-0.9°C 93% 6.0 mph NNW9.7 kmh NNW 11.0 mph17.7 kmh 30.16 in1021.3 mb 0.00 in0.0 mm 0.00 in0.0 mm 0.00 in0.0 mm
08:00 AM 32.0°F0.0°C 30.2°F-1.0°C 93% 6.0 mph NNW9.7 kmh NNW 14.0 mph22.5 kmh 30.17 in1021.7 mb 0.00 in0.0 mm 0.00 in0.0 mm 0.00 in0.0 mm
08:02 AM 31.7°F-0.2°C 29.9°F-1.2°C 93% 7.0 mph NNW11.3 kmh NNW 14.0 mph22.5 kmh 30.17 in1021.7 mb 0.00 in0.0 mm 0.00 in0.0 mm 0.00 in0.0 mm
08:04 AM 31.5°F-0.3°C 29.7°F-1.3°C 93% 7.0 mph NNW11.3 kmh NNW 14.0 mph22.5 kmh 30.17 in1021.7 mb 0.00 in0.0 mm 0.00 in0.0 mm 0.00 in0.0 mm
08:06 AM 31.3°F-0.4°C 29.5°F-1.4°C 93% 7.0 mph NNW11.3 kmh NNW 16.0 mph25.7 kmh 30.17 in1021.7 mb 0.00 in0.0 mm 0.00 in0.0 mm 0.00 in0.0 mm
08:08 AM 31.1°F-0.5°C 29.3°F-1.5°C 93% 8.0 mph NNW12.9 kmh NNW 18.0 mph29.0 kmh 30.17 in1021.7 mb 0.00 in0.0 mm 0.00 in0.0 mm 0.00 in0.0 mm
08:10 AM 31.0°F-0.6°C 29.2°F-1.6°C 93% 9.0 mph N14.5 kmh N 18.0 mph29.0 kmh 30.17 in1021.7 mb 0.00 in0.0 mm 0.00 in0.0 mm 0.00 in0.0 mm
08:12 AM 30.9°F-0.6°C 29.1°F-1.6°C 93% 9.0 mph NNW14.5 kmh NNW 18.0 mph29.0 kmh 30.17 in1021.7 mb 0.00 in0.0 mm 0.00 in0.0 mm 0.00 in0.0 mm
08:14 AM 30.8°F-0.7°C 29.3°F-1.5°C 94% 9.0 mph NNW14.5 kmh NNW 18.0 mph29.0 kmh 30.17 in1021.7 mb 0.00 in0.0 mm 0.00 in0.0 mm 0.00 in0.0 mm
08:16 AM 30.7°F-0.7°C 29.2°F-1.6°C 94% 9.0 mph NNW14.5 kmh NNW 18.0 mph29.0 kmh 30.18 in1022.0 mb 0.00 in0.0 mm 0.00 in0.0 mm 0.00 in0.0 mm
08:18 AM 30.7°F-0.7°C 29.2°F-1.6°C 94% 9.0 mph NNW14.5 kmh NNW 17.0 mph27.4 kmh 30.18 in1022.0 mb 0.00 in0.0 mm 0.00 in0.0 mm 0.00 in0.0 mm
08:20 AM 30.6°F-0.8°C 29.1°F-1.6°C 94% 8.0 mph NNW12.9 kmh NNW 17.0 mph27.4 kmh 30.17 in1021.7 mb 0.00 in0.0 mm 0.00 in0.0 mm 0.00 in0.0 mm
08:22 AM 30.5°F-0.8°C 29.0°F-1.7°C 94% 8.0 mph NNW12.9 kmh NNW 17.0 mph27.4 kmh 30.17 in1021.7 mb 0.00 in0.0 mm 0.00 in0.0 mm 0.00 in0.0 mm
08:24 AM 30.4°F-0.9°C 28.9°F-1.7°C 94% 8.0 mph NNW12.9 kmh NNW 16.0 mph25.7 kmh 30.18 in1022.0 mb 0.00 in0.0 mm 0.00 in0.0 mm 0.00 in0.0 mm
08:26 AM 30.3°F-0.9°C 28.8°F-1.8°C 94% 8.0 mph NNW12.9 kmh NNW 16.0 mph25.7 kmh 30.18 in1022.0 mb 0.00 in0.0 mm 0.00 in0.0 mm 0.00 in0.0 mm
08:28 AM 30.2°F-1.0°C 28.7°F-1.8°C 94% 8.0 mph NNW12.9 kmh NNW 16.0 mph25.7 kmh 30.18 in1022.0 mb 0.00 in0.0 mm 0.00 in0.0 mm 0.00 in0.0 mm
08:30 AM 30.1°F-1.1°C 28.6°F-1.9°C 94% 9.0 mph NNW14.5 kmh NNW 16.0 mph25.7 kmh 30.18 in1022.0 mb 0.00 in0.0 mm 0.00 in0.0 mm 0.00 in0.0 mm
08:32 AM 30.1°F-1.1°C 28.6°F-1.9°C 94% 9.0 mph NNW14.5 kmh NNW 16.0 mph25.7 kmh 30.18 in1022.0 mb 0.00 in0.0 mm 0.00 in0.0 mm 0.00 in0.0 mm
08:34 AM 29.9°F-1.2°C 28.4°F-2.0°C 94% 9.0 mph NNW14.5 kmh NNW 16.0 mph25.7 kmh 30.18 in1022.0 mb 0.00 in0.0 mm 0.00 in0.0 mm 0.00 in0.0 mm
08:36 AM 29.8°F-1.2°C 28.3°F-2.1°C 94% 9.0 mph NNW14.5 kmh NNW 16.0 mph25.7 kmh 30.18 in1022.0 mb 0.00 in0.0 mm 0.00 in0.0 mm 0.00 in0.0 mm
08:38 AM 29.7°F-1.3°C 28.2°F-2.1°C 94% 10.0 mph NNW16.1 kmh NNW 17.0 mph27.4 kmh 30.18 in1022.0 mb 0.00 in0.0 mm 0.00 in0.0 mm 0.00 in0.0 mm
09:00 AM 28.5°F-1.9°C 27.0°F-2.8°C 94% 9.0 mph NNW14.5 kmh NNW 15.0 mph24.1 kmh 30.19 in1022.4 mb 0.00 in0.0 mm 0.00 in0.0 mm 0.00 in0.0 mm
09:10 AM 28.0°F-2.2°C 26.5°F-3.1°C 94% 10.0 mph NNW16.1 kmh NNW 15.0 mph24.1 kmh 30.19 in1022.4 mb 0.00 in0.0 mm 0.00 in0.0 mm 0.00 in0.0 mm
09:12 AM 28.0°F-2.2°C 26.5°F-3.1°C 94% 10.0 mph NNW16.1 kmh NNW 15.0 mph24.1 kmh 30.19 in1022.4 mb 0.00 in0.0 mm 0.00 in0.0 mm 0.00 in0.0 mm
09:14 AM 28.0°F-2.2°C 26.5°F-3.1°C 94% 9.0 mph NNW14.5 kmh NNW 17.0 mph27.4 kmh 30.20 in1022.7 mb 0.00 in0.0 mm 0.00 in0.0 mm 0.00 in0.0 mm
09:16 AM 27.9°F-2.3°C 26.4°F-3.1°C 94% 10.0 mph NNW16.1 kmh NNW 17.0 mph27.4 kmh 30.19 in1022.4 mb 0.00 in0.0 mm 0.00 in0.0 mm 0.00 in0.0 mm
09:18 AM 27.9°F-2.3°C 26.4°F-3.1°C 94% 10.0 mph NNW16.1 kmh NNW 20.0 mph32.2 kmh 30.20 in1022.7 mb 0.00 in0.0 mm 0.00 in0.0 mm 0.00 in0.0 mm
09:20 AM 27.8°F-2.3°C 26.3°F-3.2°C 94% 10.0 mph NNW16.1 kmh NNW 20.0 mph32.2 kmh 30.20 in1022.7 mb 0.00 in0.0 mm 0.00 in0.0 mm 0.00 in0.0 mm
09:22 AM 27.7°F-2.4°C 26.2°F-3.2°C 94% 11.0 mph NNW17.7 kmh NNW 21.0 mph33.8 kmh 30.20 in1022.7 mb 0.00 in0.0 mm 0.00 in0.0 mm 0.00 in0.0 mm
09:24 AM 27.6°F-2.4°C 26.1°F-3.3°C 94% 11.0 mph NNW17.7 kmh NNW 21.0 mph33.8 kmh 30.20 in1022.7 mb 0.00 in0.0 mm 0.00 in0.0 mm 0.00 in0.0 mm
09:26 AM 27.5°F-2.5°C 26.0°F-3.3°C 94% 11.0 mph NNW17.7 kmh NNW 21.0 mph33.8 kmh 30.20 in1022.7 mb 0.00 in0.0 mm 0.00 in0.0 mm 0.00 in0.0 mm
09:28 AM 27.5°F-2.5°C 26.0°F-3.3°C 94% 12.0 mph NNW19.3 kmh NNW 21.0 mph33.8 kmh 30.20 in1022.7 mb 0.00 in0.0 mm 0.00 in0.0 mm 0.00 in0.0 mm
09:30 AM 27.4°F-2.6°C 25.9°F-3.4°C 94% 12.0 mph NNW19.3 kmh NNW 21.0 mph33.8 kmh 30.19 in1022.4 mb 0.00 in0.0 mm 0.00 in0.0 mm 0.00 in0.0 mm
09:32 AM 27.4°F-2.6°C 25.9°F-3.4°C 94% 11.0 mph NNW17.7 kmh NNW 19.0 mph30.6 kmh 30.20 in1022.7 mb 0.00 in0.0 mm 0.00 in0.0 mm 0.00 in0.0 mm
09:34 AM 27.3°F-2.6°C 25.8°F-3.4°C 94% 11.0 mph NNW17.7 kmh NNW 19.0 mph30.6 kmh 30.20 in1022.7 mb 0.00 in0.0 mm 0.00 in0.0 mm 0.00 in0.0 mm
09:36 AM 27.2°F-2.7°C 25.7°F-3.5°C 94% 11.0 mph NNW17.7 kmh NNW 22.0 mph35.4 kmh 30.20 in1022.7 mb 0.00 in0.0 mm 0.00 in0.0 mm 0.00 in0.0 mm
09:38 AM 27.0°F-2.8°C 25.5°F-3.6°C 94% 11.0 mph NNW17.7 kmh NNW 22.0 mph35.4 kmh 30.20 in1022.7 mb 0.00 in0.0 mm 0.00 in0.0 mm 0.00 in0.0 mm
09:40 AM 26.9°F-2.8°C 25.4°F-3.7°C 94% 11.0 mph NNW17.7 kmh NNW 22.0 mph35.4 kmh 30.20 in1022.7 mb 0.00 in0.0 mm 0.00 in0.0 mm 0.00 in0.0 mm
09:42 AM 26.9°F-2.8°C 25.4°F-3.7°C 94% 12.0 mph NNW19.3 kmh NNW 22.0 mph35.4 kmh 30.20 in1022.7 mb 0.00 in0.0 mm 0.00 in0.0 mm 0.00 in0.0 mm
09:44 AM 26.8°F-2.9°C 25.3°F-3.7°C 94% 12.0 mph NNW19.3 kmh NNW 22.0 mph35.4 kmh 30.19 in1022.4 mb 0.00 in0.0 mm 0.00 in0.0 mm 0.00 in0.0 mm
09:46 AM 26.7°F-2.9°C 25.2°F-3.8°C 94% 12.0 mph NNW19.3 kmh NNW 23.0 mph37.0 kmh 30.20 in1022.7 mb 0.00 in0.0 mm 0.00 in0.0 mm 0.00 in0.0 mm
09:48 AM 26.6°F-3.0°C 25.1°F-3.8°C 94% 12.0 mph NNW19.3 kmh NNW 23.0 mph37.0 kmh 30.20 in1022.7 mb 0.00 in0.0 mm 0.00 in0.0 mm 0.00 in0.0 mm
09:50 AM 26.5°F-3.1°C 25.0°F-3.9°C 94% 13.0 mph NNW20.9 kmh NNW 23.0 mph37.0 kmh 30.20 in1022.7 mb 0.00 in0.0 mm 0.00 in0.0 mm 0.00 in0.0 mm
09:52 AM 26.4°F-3.1°C 24.9°F-3.9°C 94% 13.0 mph NNW20.9 kmh NNW 24.0 mph38.6 kmh 30.20 in1022.7 mb 0.00 in0.0 mm 0.00 in0.0 mm 0.00 in0.0 mm
09:54 AM 26.4°F-3.1°C 24.9°F-3.9°C 94% 13.0 mph NNW20.9 kmh NNW 24.0 mph38.6 kmh 30.20 in1022.7 mb 0.00 in0.0 mm 0.00 in0.0 mm 0.00 in0.0 mm
09:56 AM 26.3°F-3.2°C 24.8°F-4.0°C 94% 13.0 mph NNW20.9 kmh NNW 24.0 mph38.6 kmh 30.20 in1022.7 mb 0.00 in0.0 mm 0.00 in0.0 mm 0.00 in0.0 mm
09:58 AM 26.4°F-3.1°C 24.9°F-3.9°C 94% 12.0 mph NNW19.3 kmh NNW 24.0 mph38.6 kmh 30.20 in1022.7 mb 0.00 in0.0 mm 0.00 in0.0 mm 0.00 in0.0 mm
10:00 AM 26.4°F-3.1°C 24.9°F-3.9°C 94% 12.0 mph NNW19.3 kmh NNW 24.0 mph38.6 kmh 30.20 in1022.7 mb 0.00 in0.0 mm 0.00 in0.0 mm 0.00 in0.0 mm
10:02 AM 26.5°F-3.1°C 25.0°F-3.9°C 94% 12.0 mph NNW19.3 kmh NNW 24.0 mph38.6 kmh 30.20 in1022.7 mb 0.00 in0.0 mm 0.00 in0.0 mm 0.00 in0.0 mm
10:04 AM 26.4°F-3.1°C 24.9°F-3.9°C 94% 12.0 mph NNW19.3 kmh NNW 24.0 mph38.6 kmh 30.20 in1022.7 mb 0.00 in0.0 mm 0.00 in0.0 mm 0.00 in0.0 mm
10:06 AM 26.5°F-3.1°C 25.0°F-3.9°C 94% 13.0 mph NNW20.9 kmh NNW 24.0 mph38.6 kmh 30.20 in1022.7 mb 0.00 in0.0 mm 0.00 in0.0 mm 0.00 in0.0 mm
10:08 AM 26.5°F-3.1°C 25.0°F-3.9°C 94% 12.0 mph NNW19.3 kmh NNW 24.0 mph38.6 kmh 30.20 in1022.7 mb 0.00 in0.0 mm 0.00 in0.0 mm 0.00 in0.0 mm
10:10 AM 26.5°F-3.1°C 25.0°F-3.9°C 94% 12.0 mph N19.3 kmh N 24.0 mph38.6 kmh 30.20 in1022.7 mb 0.00 in0.0 mm 0.00 in0.0 mm 0.00 in0.0 mm
10:12 AM 26.6°F-3.0°C 25.1°F-3.8°C 94% 12.0 mph N19.3 kmh N 21.0 mph33.8 kmh 30.20 in1022.7 mb 0.00 in0.0 mm 0.00 in0.0 mm 0.00 in0.0 mm
10:14 AM 26.6°F-3.0°C 25.1°F-3.8°C 94% 11.0 mph N17.7 kmh N 21.0 mph33.8 kmh 30.20 in1022.7 mb 0.00 in0.0 mm 0.00 in0.0 mm 0.00 in0.0 mm
10:16 AM 26.6°F-3.0°C 25.1°F-3.8°C 94% 11.0 mph N17.7 kmh N 21.0 mph33.8 kmh 30.20 in1022.7 mb 0.00 in0.0 mm 0.00 in0.0 mm 0.00 in0.0 mm
10:18 AM 26.6°F-3.0°C 25.1°F-3.8°C 94% 11.0 mph N17.7 kmh N 21.0 mph33.8 kmh 30.21 in1023.0 mb 0.00 in0.0 mm 0.00 in0.0 mm 0.00 in0.0 mm
10:20 AM 26.6°F-3.0°C 25.1°F-3.8°C 94% 11.0 mph NNW17.7 kmh NNW 18.0 mph29.0 kmh 30.21 in1023.0 mb 0.00 in0.0 mm 0.00 in0.0 mm 0.00 in0.0 mm
10:22 AM 26.5°F-3.1°C 25.0°F-3.9°C 94% 11.0 mph N17.7 kmh N 19.0 mph30.6 kmh 30.21 in1023.0 mb 0.00 in0.0 mm 0.00 in0.0 mm 0.00 in0.0 mm
10:24 AM 26.5°F-3.1°C 25.0°F-3.9°C 94% 11.0 mph N17.7 kmh N 19.0 mph30.6 kmh 30.21 in1023.0 mb 0.00 in0.0 mm 0.00 in0.0 mm 0.00 in0.0 mm
10:26 AM 26.4°F-3.1°C 24.9°F-3.9°C 94% 11.0 mph NNW17.7 kmh NNW 19.0 mph30.6 kmh 30.21 in1023.0 mb 0.00 in0.0 mm 0.00 in0.0 mm 0.00 in0.0 mm
10:28 AM 26.4°F-3.1°C 24.9°F-3.9°C 94% 11.0 mph N17.7 kmh N 19.0 mph30.6 kmh 30.21 in1023.0 mb 0.00 in0.0 mm 0.00 in0.0 mm 0.00 in0.0 mm
10:30 AM 26.3°F-3.2°C 24.8°F-4.0°C 94% 11.0 mph N17.7 kmh N 19.0 mph30.6 kmh 30.21 in1023.0 mb 0.00 in0.0 mm 0.00 in0.0 mm 0.00 in0.0 mm
10:32 AM 26.4°F-3.1°C 24.9°F-3.9°C 94% 10.0 mph NNW16.1 kmh NNW 19.0 mph30.6 kmh 30.21 in1023.0 mb 0.00 in0.0 mm 0.00 in0.0 mm 0.00 in0.0 mm
10:34 AM 26.4°F-3.1°C 24.9°F-3.9°C 94% 10.0 mph NNW16.1 kmh NNW 19.0 mph30.6 kmh 30.21 in1023.0 mb 0.00 in0.0 mm 0.00 in0.0 mm 0.00 in0.0 mm
10:36 AM 26.4°F-3.1°C 24.9°F-3.9°C 94% 10.0 mph NNW16.1 kmh NNW 19.0 mph30.6 kmh 30.21 in1023.0 mb 0.00 in0.0 mm 0.00 in0.0 mm 0.00 in0.0 mm
10:38 AM 26.4°F-3.1°C 24.9°F-3.9°C 94% 10.0 mph NNW16.1 kmh NNW 18.0 mph29.0 kmh 30.21 in1023.0 mb 0.00 in0.0 mm 0.00 in0.0 mm 0.00 in0.0 mm
10:40 AM 26.4°F-3.1°C 24.9°F-3.9°C 94% 10.0 mph NNW16.1 kmh NNW 17.0 mph27.4 kmh 30.22 in1023.4 mb 0.00 in0.0 mm 0.00 in0.0 mm 0.00 in0.0 mm
10:42 AM 26.4°F-3.1°C 24.9°F-3.9°C 94% 10.0 mph NNW16.1 kmh NNW 17.0 mph27.4 kmh 30.22 in1023.4 mb 0.00 in0.0 mm 0.00 in0.0 mm 0.00 in0.0 mm
10:44 AM 26.4°F-3.1°C 24.9°F-3.9°C 94% 10.0 mph NNW16.1 kmh NNW 17.0 mph27.4 kmh 30.22 in1023.4 mb 0.00 in0.0 mm 0.00 in0.0 mm 0.00 in0.0 mm
10:46 AM 26.3°F-3.2°C 24.8°F-4.0°C 94% 10.0 mph NNW16.1 kmh NNW 16.0 mph25.7 kmh 30.22 in1023.4 mb 0.00 in0.0 mm 0.00 in0.0 mm 0.00 in0.0 mm
10:48 AM 26.2°F-3.2°C 24.7°F-4.1°C 94% 11.0 mph NNW17.7 kmh NNW 16.0 mph25.7 kmh 30.22 in1023.4 mb 0.00 in0.0 mm 0.00 in0.0 mm 0.00 in0.0 mm
10:50 AM 26.2°F-3.2°C 24.7°F-4.1°C 94% 11.0 mph NNW17.7 kmh NNW 23.0 mph37.0 kmh 30.22 in1023.4 mb 0.00 in0.0 mm 0.00 in0.0 mm 0.00 in0.0 mm
10:52 AM 26.1°F-3.3°C 24.6°F-4.1°C 94% 12.0 mph N19.3 kmh N 23.0 mph37.0 kmh 30.22 in1023.4 mb 0.00 in0.0 mm 0.00 in0.0 mm 0.00 in0.0 mm
10:54 AM 26.2°F-3.2°C 24.7°F-4.1°C 94% 11.0 mph NNW17.7 kmh NNW 23.0 mph37.0 kmh 30.22 in1023.4 mb 0.00 in0.0 mm 0.00 in0.0 mm 0.00 in0.0 mm
10:56 AM 26.2°F-3.2°C 24.7°F-4.1°C 94% 11.0 mph NNW17.7 kmh NNW 23.0 mph37.0 kmh 30.22 in1023.4 mb 0.00 in0.0 mm 0.00 in0.0 mm 0.00 in0.0 mm
10:58 AM 26.3°F-3.2°C 24.8°F-4.0°C 94% 11.0 mph N17.7 kmh N 23.0 mph37.0 kmh 30.22 in1023.4 mb 0.00 in0.0 mm 0.00 in0.0 mm 0.00 in0.0 mm
11:00 AM 26.3°F-3.2°C 24.8°F-4.0°C 94% 11.0 mph N17.7 kmh N 18.0 mph29.0 kmh 30.22 in1023.4 mb 0.00 in0.0 mm 0.00 in0.0 mm 0.00 in0.0 mm
11:02 AM 26.3°F-3.2°C 24.8°F-4.0°C 94% 10.0 mph N16.1 kmh N 18.0 mph29.0 kmh 30.22 in1023.4 mb 0.00 in0.0 mm 0.00 in0.0 mm 0.00 in0.0 mm
11:04 AM 26.4°F-3.1°C 24.9°F-3.9°C 94% 10.0 mph N16.1 kmh N 19.0 mph30.6 kmh 30.22 in1023.4 mb 0.00 in0.0 mm 0.00 in0.0 mm 0.00 in0.0 mm
11:06 AM 26.5°F-3.1°C 25.0°F-3.9°C 94% 11.0 mph N17.7 kmh N 19.0 mph30.6 kmh 30.22 in1023.4 mb 0.00 in0.0 mm 0.00 in0.0 mm 0.00 in0.0 mm
11:08 AM 26.4°F-3.1°C 24.9°F-3.9°C 94% 11.0 mph NNW17.7 kmh NNW 21.0 mph33.8 kmh 30.22 in1023.4 mb 0.00 in0.0 mm 0.00 in0.0 mm 0.00 in0.0 mm
11:10 AM 26.3°F-3.2°C 24.8°F-4.0°C 94% 11.0 mph NNW17.7 kmh NNW 21.0 mph33.8 kmh 30.22 in1023.4 mb 0.00 in0.0 mm 0.00 in0.0 mm 0.00 in0.0 mm
11:12 AM 26.3°F-3.2°C 24.8°F-4.0°C 94% 11.0 mph NNW17.7 kmh NNW 21.0 mph33.8 kmh 30.22 in1023.4 mb 0.00 in0.0 mm 0.00 in0.0 mm 0.00 in0.0 mm
11:14 AM 26.2°F-3.2°C 24.7°F-4.1°C 94% 12.0 mph NNW19.3 kmh NNW 21.0 mph33.8 kmh 30.21 in1023.0 mb 0.00 in0.0 mm 0.00 in0.0 mm 0.00 in0.0 mm
11:16 AM 26.2°F-3.2°C 24.7°F-4.1°C 94% 12.0 mph NNW19.3 kmh NNW 21.0 mph33.8 kmh 30.21 in1023.0 mb 0.00 in0.0 mm 0.00 in0.0 mm 0.00 in0.0 mm
11:18 AM 26.2°F-3.2°C 24.7°F-4.1°C 94% 12.0 mph NNW19.3 kmh NNW 20.0 mph32.2 kmh 30.21 in1023.0 mb 0.00 in0.0 mm 0.00 in0.0 mm 0.00 in0.0 mm
11:20 AM 26.2°F-3.2°C 24.7°F-4.1°C 94% 12.0 mph NNW19.3 kmh NNW 20.0 mph32.2 kmh 30.22 in1023.4 mb 0.00 in0.0 mm 0.00 in0.0 mm 0.00 in0.0 mm
11:22 AM 26.2°F-3.2°C 24.7°F-4.1°C 94% 12.0 mph NNW19.3 kmh NNW 20.0 mph32.2 kmh 30.22 in1023.4 mb 0.00 in0.0 mm 0.00 in0.0 mm 0.00 in0.0 mm
11:24 AM 26.3°F-3.2°C 24.8°F-4.0°C 94% 11.0 mph NNW17.7 kmh NNW 20.0 mph32.2 kmh 30.22 in1023.4 mb 0.00 in0.0 mm 0.00 in0.0 mm 0.00 in0.0 mm
11:26 AM 26.3°F-3.2°C 24.8°F-4.0°C 94% 10.0 mph NNW16.1 kmh NNW 20.0 mph32.2 kmh 30.22 in1023.4 mb 0.00 in0.0 mm 0.00 in0.0 mm 0.00 in0.0 mm
11:28 AM 26.3°F-3.2°C 24.8°F-4.0°C 94% 10.0 mph NNW16.1 kmh NNW 18.0 mph29.0 kmh 30.22 in1023.4 mb 0.00 in0.0 mm 0.00 in0.0 mm 0.00 in0.0 mm
11:30 AM 26.3°F-3.2°C 24.8°F-4.0°C 94% 10.0 mph NNW16.1 kmh NNW 18.0 mph29.0 kmh 30.22 in1023.4 mb 0.00 in0.0 mm 0.00 in0.0 mm 0.00 in0.0 mm
11:32 AM 26.1°F-3.3°C 24.6°F-4.1°C 94% 10.0 mph NNW16.1 kmh NNW 23.0 mph37.0 kmh 30.22 in1023.4 mb 0.00 in0.0 mm 0.00 in0.0 mm 0.00 in0.0 mm
11:34 AM 26.0°F-3.3°C 24.3°F-4.3°C 93% 11.0 mph NNW17.7 kmh NNW 23.0 mph37.0 kmh 30.22 in1023.4 mb 0.00 in0.0 mm 0.00 in0.0 mm 0.00 in0.0 mm
11:36 AM 25.9°F-3.4°C 24.2°F-4.3°C 93% 12.0 mph NNW19.3 kmh NNW 24.0 mph38.6 kmh 30.22 in1023.4 mb 0.00 in0.0 mm 0.00 in0.0 mm 0.00 in0.0 mm
11:38 AM 25.8°F-3.4°C 24.3°F-4.3°C 94% 13.0 mph NNW20.9 kmh NNW 24.0 mph38.6 kmh 30.22 in1023.4 mb 0.00 in0.0 mm 0.00 in0.0 mm 0.00 in0.0 mm
11:40 AM 25.8°F-3.4°C 24.3°F-4.3°C 94% 12.0 mph NNW19.3 kmh NNW 24.0 mph38.6 kmh 30.22 in1023.4 mb 0.00 in0.0 mm 0.00 in0.0 mm 0.00 in0.0 mm
11:42 AM 25.8°F-3.4°C 24.3°F-4.3°C 94% 12.0 mph NNW19.3 kmh NNW 24.0 mph38.6 kmh 30.22 in1023.4 mb 0.00 in0.0 mm 0.00 in0.0 mm 0.00 in0.0 mm
11:44 AM 25.9°F-3.4°C 24.4°F-4.2°C 94% 12.0 mph NNW19.3 kmh NNW 24.0 mph38.6 kmh 30.22 in1023.4 mb 0.00 in0.0 mm 0.00 in0.0 mm 0.00 in0.0 mm
11:46 AM 25.9°F-3.4°C 24.4°F-4.2°C 94% 11.0 mph NNW17.7 kmh NNW 19.0 mph30.6 kmh 30.22 in1023.4 mb 0.00 in0.0 mm 0.00 in0.0 mm 0.00 in0.0 mm
11:48 AM 25.9°F-3.4°C 24.4°F-4.2°C 94% 11.0 mph NNW17.7 kmh NNW 26.0 mph41.8 kmh 30.22 in1023.4 mb 0.00 in0.0 mm 0.00 in0.0 mm 0.00 in0.0 mm
11:50 AM 25.8°F-3.4°C 24.3°F-4.3°C 94% 12.0 mph NNW19.3 kmh NNW 26.0 mph41.8 kmh 30.22 in1023.4 mb 0.00 in0.0 mm 0.00 in0.0 mm 0.00 in0.0 mm
11:52 AM 25.7°F-3.5°C 24.2°F-4.3°C 94% 12.0 mph N19.3 kmh N 26.0 mph41.8 kmh 30.22 in1023.4 mb 0.00 in0.0 mm 0.00 in0.0 mm 0.00 in0.0 mm
11:54 AM 25.7°F-3.5°C 24.2°F-4.3°C 94% 12.0 mph N19.3 kmh N 26.0 mph41.8 kmh 30.22 in1023.4 mb 0.00 in0.0 mm 0.00 in0.0 mm 0.00 in0.0 mm
11:56 AM 25.7°F-3.5°C 24.2°F-4.3°C 94% 12.0 mph NNW19.3 kmh NNW 26.0 mph41.8 kmh 30.22 in1023.4 mb 0.00 in0.0 mm 0.00 in0.0 mm 0.00 in0.0 mm
11:58 AM 25.7°F-3.5°C 24.2°F-4.3°C 94% 12.0 mph NNW19.3 kmh NNW 19.0 mph30.6 kmh 30.22 in1023.4 mb 0.00 in0.0 mm 0.00 in0.0 mm 0.00 in0.0 mm
12:00 PM 25.6°F-3.6°C 24.1°F-4.4°C 94% 12.0 mph NNW19.3 kmh NNW 18.0 mph29.0 kmh 30.22 in1023.4 mb 0.00 in0.0 mm 0.00 in0.0 mm 0.00 in0.0 mm
12:02 PM 25.5°F-3.6°C 24.0°F-4.4°C 94% 11.0 mph NNW17.7 kmh NNW 22.0 mph35.4 kmh 30.22 in1023.4 mb 0.00 in0.0 mm 0.00 in0.0 mm 0.00 in0.0 mm
12:04 PM 25.5°F-3.6°C 24.0°F-4.4°C 94% 11.0 mph NNW17.7 kmh NNW 22.0 mph35.4 kmh 30.22 in1023.4 mb 0.00 in0.0 mm 0.00 in0.0 mm 0.00 in0.0 mm
12:06 PM 25.4°F-3.7°C 23.9°F-4.5°C 94% 11.0 mph NNW17.7 kmh NNW 22.0 mph35.4 kmh 30.22 in1023.4 mb 0.00 in0.0 mm 0.00 in0.0 mm 0.00 in0.0 mm
12:08 PM 25.3°F-3.7°C 23.6°F-4.7°C 93% 11.0 mph NNW17.7 kmh NNW 22.0 mph35.4 kmh 30.22 in1023.4 mb 0.00 in0.0 mm 0.00 in0.0 mm 0.00 in0.0 mm
12:10 PM 25.3°F-3.7°C 23.6°F-4.7°C 93% 11.0 mph NNW17.7 kmh NNW 22.0 mph35.4 kmh 30.22 in1023.4 mb 0.00 in0.0 mm 0.00 in0.0 mm 0.00 in0.0 mm
12:12 PM 25.3°F-3.7°C 23.6°F-4.7°C 93% 12.0 mph NNW19.3 kmh NNW 22.0 mph35.4 kmh 30.22 in1023.4 mb 0.00 in0.0 mm 0.00 in0.0 mm 0.00 in0.0 mm
12:14 PM 25.3°F-3.7°C 23.6°F-4.7°C 93% 12.0 mph NNW19.3 kmh NNW 20.0 mph32.2 kmh 30.22 in1023.4 mb 0.00 in0.0 mm 0.00 in0.0 mm 0.00 in0.0 mm
12:16 PM 25.2°F-3.8°C 23.5°F-4.7°C 93% 12.0 mph NNW19.3 kmh NNW 20.0 mph32.2 kmh 30.22 in1023.4 mb 0.00 in0.0 mm 0.00 in0.0 mm 0.00 in0.0 mm
12:18 PM 25.3°F-3.7°C 23.6°F-4.7°C 93% 12.0 mph NNW19.3 kmh NNW 20.0 mph32.2 kmh 30.22 in1023.4 mb 0.00 in0.0 mm 0.00 in0.0 mm 0.00 in0.0 mm
12:20 PM 25.4°F-3.7°C 23.9°F-4.5°C 94% 11.0 mph NNW17.7 kmh NNW 20.0 mph32.2 kmh 30.22 in1023.4 mb 0.00 in0.0 mm 0.00 in0.0 mm 0.00 in0.0 mm
12:22 PM 25.4°F-3.7°C 23.7°F-4.6°C 93% 10.0 mph NNW16.1 kmh NNW 20.0 mph32.2 kmh 30.22 in1023.4 mb 0.00 in0.0 mm 0.00 in0.0 mm 0.00 in0.0 mm
12:24 PM 25.3°F-3.7°C 23.6°F-4.7°C 93% 10.0 mph NNW16.1 kmh NNW 20.0 mph32.2 kmh 30.22 in1023.4 mb 0.00 in0.0 mm 0.00 in0.0 mm 0.00 in0.0 mm
12:26 PM 25.3°F-3.7°C 23.6°F-4.7°C 93% 10.0 mph NNW16.1 kmh NNW 21.0 mph33.8 kmh 30.21 in1023.0 mb 0.00 in0.0 mm 0.00 in0.0 mm 0.00 in0.0 mm
12:28 PM 25.2°F-3.8°C 23.5°F-4.7°C 93% 10.0 mph NNW16.1 kmh NNW 21.0 mph33.8 kmh 30.22 in1023.4 mb 0.00 in0.0 mm 0.00 in0.0 mm 0.00 in0.0 mm
12:30 PM 25.1°F-3.8°C 23.4°F-4.8°C 93% 12.0 mph NNW19.3 kmh NNW 21.0 mph33.8 kmh 30.22 in1023.4 mb 0.00 in0.0 mm 0.00 in0.0 mm 0.00 in0.0 mm
12:32 PM 25.1°F-3.8°C 23.4°F-4.8°C 93% 12.0 mph NNW19.3 kmh NNW 23.0 mph37.0 kmh 30.22 in1023.4 mb 0.00 in0.0 mm 0.00 in0.0 mm 0.00 in0.0 mm
12:34 PM 25.0°F-3.9°C 23.3°F-4.8°C 93% 12.0 mph NNW19.3 kmh NNW 23.0 mph37.0 kmh 30.22 in1023.4 mb 0.00 in0.0 mm 0.00 in0.0 mm 0.00 in0.0 mm
12:36 PM 25.0°F-3.9°C 23.3°F-4.8°C 93% 12.0 mph NNW19.3 kmh NNW 23.0 mph37.0 kmh 30.22 in1023.4 mb 0.00 in0.0 mm 0.00 in0.0 mm 0.00 in0.0 mm
12:38 PM 25.0°F-3.9°C 23.3°F-4.8°C 93% 12.0 mph NNW19.3 kmh NNW 23.0 mph37.0 kmh 30.22 in1023.4 mb 0.00 in0.0 mm 0.00 in0.0 mm 0.00 in0.0 mm
12:40 PM 25.0°F-3.9°C 23.3°F-4.8°C 93% 11.0 mph NNW17.7 kmh NNW 23.0 mph37.0 kmh 30.21 in1023.0 mb 0.00 in0.0 mm 0.00 in0.0 mm 0.00 in0.0 mm
12:42 PM 25.0°F-3.9°C 23.3°F-4.8°C 93% 11.0 mph NNW17.7 kmh NNW 20.0 mph32.2 kmh 30.22 in1023.4 mb 0.00 in0.0 mm 0.00 in0.0 mm 0.00 in0.0 mm
12:44 PM 25.0°F-3.9°C 23.3°F-4.8°C 93% 10.0 mph NNW16.1 kmh NNW 20.0 mph32.2 kmh 30.22 in1023.4 mb 0.00 in0.0 mm 0.00 in0.0 mm 0.00 in0.0 mm
12:46 PM 25.0°F-3.9°C 23.3°F-4.8°C 93% 10.0 mph NNW16.1 kmh NNW 15.0 mph24.1 kmh 30.22 in1023.4 mb 0.00 in0.0 mm 0.00 in0.0 mm 0.00 in0.0 mm
12:48 PM 24.9°F-3.9°C 23.2°F-4.9°C 93% 10.0 mph NNW16.1 kmh NNW 18.0 mph29.0 kmh 30.22 in1023.4 mb 0.00 in0.0 mm 0.00 in0.0 mm 0.00 in0.0 mm
12:50 PM 24.9°F-3.9°C 23.2°F-4.9°C 93% 10.0 mph NNW16.1 kmh NNW 18.0 mph29.0 kmh 30.23 in1023.7 mb 0.00 in0.0 mm 0.00 in0.0 mm 0.00 in0.0 mm
12:52 PM 24.8°F-4.0°C 23.1°F-4.9°C 93% 10.0 mph NNW16.1 kmh NNW 18.0 mph29.0 kmh 30.23 in1023.7 mb 0.00 in0.0 mm 0.00 in0.0 mm 0.00 in0.0 mm
12:54 PM 24.8°F-4.0°C 23.1°F-4.9°C 93% 10.0 mph NNW16.1 kmh NNW 18.0 mph29.0 kmh 30.23 in1023.7 mb 0.00 in0.0 mm 0.00 in0.0 mm 0.00 in0.0 mm
12:56 PM 24.9°F-3.9°C 23.2°F-4.9°C 93% 9.0 mph NNW14.5 kmh NNW 18.0 mph29.0 kmh 30.23 in1023.7 mb 0.00 in0.0 mm 0.00 in0.0 mm 0.00 in0.0 mm
12:58 PM 24.9°F-3.9°C 23.2°F-4.9°C 93% 8.0 mph NNW12.9 kmh NNW 15.0 mph24.1 kmh 30.23 in1023.7 mb 0.00 in0.0 mm 0.00 in0.0 mm 0.00 in0.0 mm
01:00 PM 24.9°F-3.9°C 23.2°F-4.9°C 93% 8.0 mph NNW12.9 kmh NNW 15.0 mph24.1 kmh 30.23 in1023.7 mb 0.00 in0.0 mm 0.00 in0.0 mm 0.00 in0.0 mm
01:02 PM 24.9°F-3.9°C 23.2°F-4.9°C 93% 8.0 mph NNW12.9 kmh NNW 14.0 mph22.5 kmh 30.23 in1023.7 mb 0.00 in0.0 mm 0.00 in0.0 mm 0.00 in0.0 mm
01:04 PM 24.9°F-3.9°C 23.2°F-4.9°C 93% 7.0 mph NNW11.3 kmh NNW 14.0 mph22.5 kmh 30.23 in1023.7 mb 0.00 in0.0 mm 0.00 in0.0 mm 0.00 in0.0 mm
01:06 PM 24.9°F-3.9°C 23.2°F-4.9°C 93% 8.0 mph NNW12.9 kmh NNW 14.0 mph22.5 kmh 30.23 in1023.7 mb 0.00 in0.0 mm 0.00 in0.0 mm 0.00 in0.0 mm
01:08 PM 24.8°F-4.0°C 23.1°F-4.9°C 93% 8.0 mph NNW12.9 kmh NNW 18.0 mph29.0 kmh 30.23 in1023.7 mb 0.00 in0.0 mm 0.00 in0.0 mm 0.00 in0.0 mm
01:10 PM 24.7°F-4.1°C 23.0°F-5.0°C 93% 8.0 mph NNW12.9 kmh NNW 18.0 mph29.0 kmh 30.23 in1023.7 mb 0.00 in0.0 mm 0.00 in0.0 mm 0.00 in0.0 mm
01:12 PM 24.7°F-4.1°C 23.0°F-5.0°C 93% 9.0 mph NNW14.5 kmh NNW 18.0 mph29.0 kmh 30.23 in1023.7 mb 0.00 in0.0 mm 0.00 in0.0 mm 0.00 in0.0 mm
01:14 PM 24.8°F-4.0°C 23.1°F-4.9°C 93% 9.0 mph NNW14.5 kmh NNW 18.0 mph29.0 kmh 30.23 in1023.7 mb 0.00 in0.0 mm 0.00 in0.0 mm 0.00 in0.0 mm
01:16 PM 24.8°F-4.0°C 23.1°F-4.9°C 93% 9.0 mph NNW14.5 kmh NNW 18.0 mph29.0 kmh 30.23 in1023.7 mb 0.00 in0.0 mm 0.00 in0.0 mm 0.00 in0.0 mm
01:18 PM 24.7°F-4.1°C 23.0°F-5.0°C 93% 9.0 mph NNW14.5 kmh NNW 17.0 mph27.4 kmh 30.23 in1023.7 mb 0.00 in0.0 mm 0.00 in0.0 mm 0.00 in0.0 mm
01:20 PM 24.8°F-4.0°C 23.1°F-4.9°C 93% 9.0 mph NNW14.5 kmh NNW 17.0 mph27.4 kmh 30.23 in1023.7 mb 0.00 in0.0 mm 0.00 in0.0 mm 0.00 in0.0 mm
01:22 PM 24.8°F-4.0°C 23.1°F-4.9°C 93% 8.0 mph NNW12.9 kmh NNW 17.0 mph27.4 kmh 30.23 in1023.7 mb 0.00 in0.0 mm 0.00 in0.0 mm 0.00 in0.0 mm
01:24 PM 24.8°F-4.0°C 23.1°F-4.9°C 93% 8.0 mph NNW12.9 kmh NNW 17.0 mph27.4 kmh 30.23 in1023.7 mb 0.00 in0.0 mm 0.00 in0.0 mm 0.00 in0.0 mm
01:26 PM 24.8°F-4.0°C 23.1°F-4.9°C 93% 8.0 mph NNW12.9 kmh NNW 17.0 mph27.4 kmh 30.23 in1023.7 mb 0.00 in0.0 mm 0.00 in0.0 mm 0.00 in0.0 mm
01:28 PM 24.7°F-4.1°C 23.0°F-5.0°C 93% 8.0 mph NNW12.9 kmh NNW 16.0 mph25.7 kmh 30.23 in1023.7 mb 0.00 in0.0 mm 0.00 in0.0 mm 0.00 in0.0 mm
01:30 PM 24.8°F-4.0°C 23.1°F-4.9°C 93% 8.0 mph NNW12.9 kmh NNW 16.0 mph25.7 kmh 30.24 in1024.0 mb 0.00 in0.0 mm 0.00 in0.0 mm 0.00 in0.0 mm
01:32 PM 24.8°F-4.0°C 23.1°F-4.9°C 93% 7.0 mph NNW11.3 kmh NNW 16.0 mph25.7 kmh 30.24 in1024.0 mb 0.00 in0.0 mm 0.00 in0.0 mm 0.00 in0.0 mm
01:34 PM 24.8°F-4.0°C 23.1°F-4.9°C 93% 7.0 mph NNW11.3 kmh NNW 13.0 mph20.9 kmh 30.24 in1024.0 mb 0.00 in0.0 mm 0.00 in0.0 mm 0.00 in0.0 mm
01:36 PM 24.8°F-4.0°C 23.1°F-4.9°C 93% 7.0 mph NNW11.3 kmh NNW 13.0 mph20.9 kmh 30.24 in1024.0 mb 0.00 in0.0 mm 0.00 in0.0 mm 0.00 in0.0 mm
01:38 PM 24.7°F-4.1°C 23.0°F-5.0°C 93% 7.0 mph NNW11.3 kmh NNW 13.0 mph20.9 kmh 30.24 in1024.0 mb 0.00 in0.0 mm 0.00 in0.0 mm 0.00 in0.0 mm
02:04 PM 24.5°F-4.2°C 22.8°F-5.1°C 93% 7.0 mph NNW11.3 kmh NNW 12.0 mph19.3 kmh 30.25 in1024.4 mb 0.00 in0.0 mm 0.00 in0.0 mm 0.00 in0.0 mm
02:06 PM 24.5°F-4.2°C 22.8°F-5.1°C 93% 7.0 mph NNW11.3 kmh NNW 12.0 mph19.3 kmh 30.25 in1024.4 mb 0.00 in0.0 mm 0.00 in0.0 mm 0.00 in0.0 mm
02:08 PM 24.4°F-4.2°C 22.7°F-5.2°C 93% 7.0 mph NNW11.3 kmh NNW 11.0 mph17.7 kmh 30.25 in1024.4 mb 0.00 in0.0 mm 0.00 in0.0 mm 0.00 in0.0 mm
02:10 PM 24.4°F-4.2°C 22.7°F-5.2°C 93% 6.0 mph NW9.7 kmh NW 11.0 mph17.7 kmh 30.26 in1024.7 mb 0.00 in0.0 mm 0.00 in0.0 mm 0.00 in0.0 mm
02:12 PM 24.4°F-4.2°C 22.7°F-5.2°C 93% 6.0 mph NW9.7 kmh NW 11.0 mph17.7 kmh 30.26 in1024.7 mb 0.00 in0.0 mm 0.00 in0.0 mm 0.00 in0.0 mm
02:14 PM 24.3°F-4.3°C 22.6°F-5.2°C 93% 6.0 mph NW9.7 kmh NW 11.0 mph17.7 kmh 30.25 in1024.4 mb 0.00 in0.0 mm 0.00 in0.0 mm 0.00 in0.0 mm
02:16 PM 24.3°F-4.3°C 22.6°F-5.2°C 93% 7.0 mph NW11.3 kmh NW 11.0 mph17.7 kmh 30.25 in1024.4 mb 0.00 in0.0 mm 0.00 in0.0 mm 0.00 in0.0 mm
02:18 PM 24.3°F-4.3°C 22.6°F-5.2°C 93% 6.0 mph NNW9.7 kmh NNW 11.0 mph17.7 kmh 30.25 in1024.4 mb 0.00 in0.0 mm 0.00 in0.0 mm 0.00 in0.0 mm
02:20 PM 24.3°F-4.3°C 22.6°F-5.2°C 93% 6.0 mph NNW9.7 kmh NNW 12.0 mph19.3 kmh 30.25 in1024.4 mb 0.00 in0.0 mm 0.00 in0.0 mm 0.00 in0.0 mm
02:22 PM 24.2°F-4.3°C 22.5°F-5.3°C 93% 7.0 mph NNW11.3 kmh NNW 12.0 mph19.3 kmh 30.26 in1024.7 mb 0.00 in0.0 mm 0.00 in0.0 mm 0.00 in0.0 mm
02:24 PM 24.2°F-4.3°C 22.5°F-5.3°C 93% 7.0 mph NNW11.3 kmh NNW 12.0 mph19.3 kmh 30.26 in1024.7 mb 0.00 in0.0 mm 0.00 in0.0 mm 0.00 in0.0 mm
02:26 PM 24.1°F-4.4°C 22.4°F-5.3°C 93% 7.0 mph NNW11.3 kmh NNW 12.0 mph19.3 kmh 30.26 in1024.7 mb 0.00 in0.0 mm 0.00 in0.0 mm 0.00 in0.0 mm
02:28 PM 24.1°F-4.4°C 22.4°F-5.3°C 93% 7.0 mph NNW11.3 kmh NNW 12.0 mph19.3 kmh 30.25 in1024.4 mb 0.00 in0.0 mm 0.00 in0.0 mm 0.00 in0.0 mm
02:30 PM 24.0°F-4.4°C 22.3°F-5.4°C 93% 7.0 mph NNW11.3 kmh NNW 12.0 mph19.3 kmh 30.26 in1024.7 mb 0.00 in0.0 mm 0.00 in0.0 mm 0.00 in0.0 mm
02:32 PM 24.0°F-4.4°C 22.3°F-5.4°C 93% 7.0 mph NNW11.3 kmh NNW 12.0 mph19.3 kmh 30.26 in1024.7 mb 0.00 in0.0 mm 0.00 in0.0 mm 0.00 in0.0 mm
02:34 PM 24.0°F-4.4°C 22.3°F-5.4°C 93% 7.0 mph NNW11.3 kmh NNW 12.0 mph19.3 kmh 30.26 in1024.7 mb 0.00 in0.0 mm 0.00 in0.0 mm 0.00 in0.0 mm
02:36 PM 23.9°F-4.5°C 22.2°F-5.4°C 93% 7.0 mph NNW11.3 kmh NNW 12.0 mph19.3 kmh 30.26 in1024.7 mb 0.00 in0.0 mm 0.00 in0.0 mm 0.00 in0.0 mm
02:38 PM 24.0°F-4.4°C 22.3°F-5.4°C 93% 6.0 mph NW9.7 kmh NW 12.0 mph19.3 kmh 30.26 in1024.7 mb 0.00 in0.0 mm 0.00 in0.0 mm 0.00 in0.0 mm
02:40 PM 24.0°F-4.4°C 22.3°F-5.4°C 93% 6.0 mph NW9.7 kmh NW 10.0 mph16.1 kmh 30.26 in1024.7 mb 0.00 in0.0 mm 0.00 in0.0 mm 0.00 in0.0 mm
02:42 PM 24.0°F-4.4°C 22.3°F-5.4°C 93% 6.0 mph NNW9.7 kmh NNW 11.0 mph17.7 kmh 30.26 in1024.7 mb 0.00 in0.0 mm 0.00 in0.0 mm 0.00 in0.0 mm
02:44 PM 24.0°F-4.4°C 22.3°F-5.4°C 93% 6.0 mph NNW9.7 kmh NNW 11.0 mph17.7 kmh 30.26 in1024.7 mb 0.00 in0.0 mm 0.00 in0.0 mm 0.00 in0.0 mm
02:46 PM 24.0°F-4.4°C 22.3°F-5.4°C 93% 6.0 mph NNW9.7 kmh NNW 11.0 mph17.7 kmh 30.27 in1025.1 mb 0.00 in0.0 mm 0.00 in0.0 mm 0.00 in0.0 mm
02:48 PM 24.0°F-4.4°C 22.3°F-5.4°C 93% 6.0 mph NNW9.7 kmh NNW 11.0 mph17.7 kmh 30.27 in1025.1 mb 0.00 in0.0 mm 0.00 in0.0 mm 0.00 in0.0 mm
02:50 PM 24.0°F-4.4°C 22.3°F-5.4°C 93% 5.0 mph NW8.0 kmh NW 11.0 mph17.7 kmh 30.27 in1025.1 mb 0.00 in0.0 mm 0.00 in0.0 mm 0.00 in0.0 mm
02:52 PM 24.0°F-4.4°C 22.3°F-5.4°C 93% 5.0 mph NW8.0 kmh NW 11.0 mph17.7 kmh 30.27 in1025.1 mb 0.00 in0.0 mm 0.00 in0.0 mm 0.00 in0.0 mm
02:54 PM 23.9°F-4.5°C 22.2°F-5.4°C 93% 6.0 mph NW9.7 kmh NW 11.0 mph17.7 kmh 30.27 in1025.1 mb 0.00 in0.0 mm 0.00 in0.0 mm 0.00 in0.0 mm
02:56 PM 23.9°F-4.5°C 22.2°F-5.4°C 93% 6.0 mph NNW9.7 kmh NNW 11.0 mph17.7 kmh 30.27 in1025.1 mb 0.00 in0.0 mm 0.00 in0.0 mm 0.00 in0.0 mm
02:58 PM 23.8°F-4.6°C 22.1°F-5.5°C 93% 6.0 mph NNW9.7 kmh NNW 11.0 mph17.7 kmh 30.27 in1025.1 mb 0.00 in0.0 mm 0.00 in0.0 mm 0.00 in0.0 mm
03:00 PM 23.7°F-4.6°C 22.0°F-5.6°C 93% 7.0 mph NW11.3 kmh NW 14.0 mph22.5 kmh 30.27 in1025.1 mb 0.00 in0.0 mm 0.00 in0.0 mm 0.00 in0.0 mm
03:02 PM 23.7°F-4.6°C 22.0°F-5.6°C 93% 6.0 mph NW9.7 kmh NW 14.0 mph22.5 kmh 30.28 in1025.4 mb 0.00 in0.0 mm 0.00 in0.0 mm 0.00 in0.0 mm
03:04 PM 23.6°F-4.7°C 21.9°F-5.6°C 93% 6.0 mph NNW9.7 kmh NNW 14.0 mph22.5 kmh 30.28 in1025.4 mb 0.00 in0.0 mm 0.00 in0.0 mm 0.00 in0.0 mm
03:06 PM 23.6°F-4.7°C 21.9°F-5.6°C 93% 6.0 mph NW9.7 kmh NW 14.0 mph22.5 kmh 30.28 in1025.4 mb 0.00 in0.0 mm 0.00 in0.0 mm 0.00 in0.0 mm
03:08 PM 23.6°F-4.7°C 21.9°F-5.6°C 93% 6.0 mph NW9.7 kmh NW 14.0 mph22.5 kmh 30.28 in1025.4 mb 0.00 in0.0 mm 0.00 in0.0 mm 0.00 in0.0 mm
03:10 PM 23.6°F-4.7°C 21.9°F-5.6°C 93% 6.0 mph NW9.7 kmh NW 11.0 mph17.7 kmh 30.28 in1025.4 mb 0.00 in0.0 mm 0.00 in0.0 mm 0.00 in0.0 mm
03:12 PM 23.6°F-4.7°C 21.9°F-5.6°C 93% 6.0 mph NW9.7 kmh NW 10.0 mph16.1 kmh 30.28 in1025.4 mb 0.00 in0.0 mm 0.00 in0.0 mm 0.00 in0.0 mm
03:14 PM 23.6°F-4.7°C 21.9°F-5.6°C 93% 6.0 mph NW9.7 kmh NW 10.0 mph16.1 kmh 30.28 in1025.4 mb 0.00 in0.0 mm 0.00 in0.0 mm 0.00 in0.0 mm
03:16 PM 23.6°F-4.7°C 21.9°F-5.6°C 93% 6.0 mph NW9.7 kmh NW 10.0 mph16.1 kmh 30.28 in1025.4 mb 0.00 in0.0 mm 0.00 in0.0 mm 0.00 in0.0 mm
03:18 PM 23.5°F-4.7°C 21.8°F-5.7°C 93% 6.0 mph NW9.7 kmh NW 10.0 mph16.1 kmh 30.28 in1025.4 mb 0.00 in0.0 mm 0.00 in0.0 mm 0.00 in0.0 mm
03:20 PM 23.5°F-4.7°C 21.8°F-5.7°C 93% 6.0 mph NW9.7 kmh NW 12.0 mph19.3 kmh 30.28 in1025.4 mb 0.00 in0.0 mm 0.00 in0.0 mm 0.00 in0.0 mm
03:22 PM 23.4°F-4.8°C 21.7°F-5.7°C 93% 6.0 mph NW9.7 kmh NW 12.0 mph19.3 kmh 30.28 in1025.4 mb 0.00 in0.0 mm 0.00 in0.0 mm 0.00 in0.0 mm
03:24 PM 23.4°F-4.8°C 21.7°F-5.7°C 93% 6.0 mph NW9.7 kmh NW 12.0 mph19.3 kmh 30.29 in1025.7 mb 0.00 in0.0 mm 0.00 in0.0 mm 0.00 in0.0 mm
03:26 PM 23.4°F-4.8°C 21.7°F-5.7°C 93% 6.0 mph NNW9.7 kmh NNW 12.0 mph19.3 kmh 30.28 in1025.4 mb 0.00 in0.0 mm 0.00 in0.0 mm 0.00 in0.0 mm
03:28 PM 23.3°F-4.8°C 21.6°F-5.8°C 93% 7.0 mph NW11.3 kmh NW 12.0 mph19.3 kmh 30.29 in1025.7 mb 0.00 in0.0 mm 0.00 in0.0 mm 0.00 in0.0 mm
03:30 PM 23.3°F-4.8°C 21.6°F-5.8°C 93% 7.0 mph NW11.3 kmh NW 12.0 mph19.3 kmh 30.29 in1025.7 mb 0.00 in0.0 mm 0.00 in0.0 mm 0.00 in0.0 mm
03:32 PM 23.3°F-4.8°C 21.6°F-5.8°C 93% 6.0 mph NW9.7 kmh NW 12.0 mph19.3 kmh 30.29 in1025.7 mb 0.00 in0.0 mm 0.00 in0.0 mm 0.00 in0.0 mm
04:04 PM 22.6°F-5.2°C 20.6°F-6.3°C 92% 7.0 mph NNW11.3 kmh NNW 14.0 mph22.5 kmh 30.30 in1026.1 mb 0.00 in0.0 mm 0.00 in0.0 mm 0.00 in0.0 mm
04:12 PM 22.6°F-5.2°C 20.6°F-6.3°C 92% 6.0 mph NNW9.7 kmh NNW 10.0 mph16.1 kmh 30.31 in1026.4 mb 0.00 in0.0 mm 0.00 in0.0 mm 0.00 in0.0 mm
04:14 PM 22.6°F-5.2°C 20.6°F-6.3°C 92% 6.0 mph NW9.7 kmh NW 10.0 mph16.1 kmh 30.30 in1026.1 mb 0.00 in0.0 mm 0.00 in0.0 mm 0.00 in0.0 mm
04:16 PM 22.6°F-5.2°C 20.6°F-6.3°C 92% 6.0 mph NW9.7 kmh NW 10.0 mph16.1 kmh 30.30 in1026.1 mb 0.00 in0.0 mm 0.00 in0.0 mm 0.00 in0.0 mm
04:24 PM 22.6°F-5.2°C 20.6°F-6.3°C 92% 6.0 mph NW9.7 kmh NW 10.0 mph16.1 kmh 30.31 in1026.4 mb 0.00 in0.0 mm 0.00 in0.0 mm 0.00 in0.0 mm
04:26 PM 22.6°F-5.2°C 20.4°F-6.4°C 91% 6.0 mph NW9.7 kmh NW 10.0 mph16.1 kmh 30.30 in1026.1 mb 0.00 in0.0 mm 0.00 in0.0 mm 0.00 in0.0 mm
04:28 PM 22.6°F-5.2°C 20.4°F-6.4°C 91% 6.0 mph NW9.7 kmh NW 10.0 mph16.1 kmh 30.30 in1026.1 mb 0.00 in0.0 mm 0.00 in0.0 mm 0.00 in0.0 mm
04:30 PM 22.5°F-5.3°C 20.3°F-6.5°C 91% 6.0 mph NW9.7 kmh NW 13.0 mph20.9 kmh 30.31 in1026.4 mb 0.00 in0.0 mm 0.00 in0.0 mm 0.00 in0.0 mm
04:32 PM 22.5°F-5.3°C 20.3°F-6.5°C 91% 6.0 mph NW9.7 kmh NW 13.0 mph20.9 kmh 30.31 in1026.4 mb 0.00 in0.0 mm 0.00 in0.0 mm 0.00 in0.0 mm
04:34 PM 22.5°F-5.3°C 20.3°F-6.5°C 91% 6.0 mph NW9.7 kmh NW 13.0 mph20.9 kmh 30.32 in1026.8 mb 0.00 in0.0 mm 0.00 in0.0 mm 0.00 in0.0 mm
04:36 PM 22.4°F-5.3°C 20.2°F-6.6°C 91% 6.0 mph NW9.7 kmh NW 13.0 mph20.9 kmh 30.31 in1026.4 mb 0.00 in0.0 mm 0.00 in0.0 mm 0.00 in0.0 mm
04:38 PM 22.4°F-5.3°C 20.2°F-6.6°C 91% 6.0 mph NW9.7 kmh NW 13.0 mph20.9 kmh 30.31 in1026.4 mb 0.00 in0.0 mm 0.00 in0.0 mm 0.00 in0.0 mm
04:40 PM 22.3°F-5.4°C 20.1°F-6.6°C 91% 6.0 mph NW9.7 kmh NW 13.0 mph20.9 kmh 30.31 in1026.4 mb 0.00 in0.0 mm 0.00 in0.0 mm 0.00 in0.0 mm
04:42 PM 22.4°F-5.3°C 20.2°F-6.6°C 91% 6.0 mph NW9.7 kmh NW 13.0 mph20.9 kmh 30.32 in1026.8 mb 0.00 in0.0 mm 0.00 in0.0 mm 0.00 in0.0 mm
04:44 PM 22.4°F-5.3°C 20.2°F-6.6°C 91% 6.0 mph NW9.7 kmh NW 13.0 mph20.9 kmh 30.32 in1026.8 mb 0.00 in0.0 mm 0.00 in0.0 mm 0.00 in0.0 mm
04:46 PM 22.3°F-5.4°C 20.1°F-6.6°C 91% 6.0 mph NW9.7 kmh NW 13.0 mph20.9 kmh 30.32 in1026.8 mb 0.00 in0.0 mm 0.00 in0.0 mm 0.00 in0.0 mm
04:48 PM 22.2°F-5.4°C 19.7°F-6.8°C 90% 6.0 mph NW9.7 kmh NW 11.0 mph17.7 kmh 30.32 in1026.8 mb 0.00 in0.0 mm 0.00 in0.0 mm 0.00 in0.0 mm
04:50 PM 22.2°F-5.4°C 19.7°F-6.8°C 90% 7.0 mph NW11.3 kmh NW 12.0 mph19.3 kmh 30.32 in1026.8 mb 0.00 in0.0 mm 0.00 in0.0 mm 0.00 in0.0 mm
04:52 PM 22.1°F-5.5°C 19.6°F-6.9°C 90% 7.0 mph NNW11.3 kmh NNW 12.0 mph19.3 kmh 30.32 in1026.8 mb 0.00 in0.0 mm 0.00 in0.0 mm 0.00 in0.0 mm
04:54 PM 22.1°F-5.5°C 19.6°F-6.9°C 90% 7.0 mph NW11.3 kmh NW 12.0 mph19.3 kmh 30.32 in1026.8 mb 0.00 in0.0 mm 0.00 in0.0 mm 0.00 in0.0 mm
04:56 PM 22.1°F-5.5°C 19.6°F-6.9°C 90% 7.0 mph NW11.3 kmh NW 12.0 mph19.3 kmh 30.33 in1027.1 mb 0.00 in0.0 mm 0.00 in0.0 mm 0.00 in0.0 mm
04:58 PM 22.1°F-5.5°C 19.4°F-7.0°C 89% 7.0 mph NW11.3 kmh NW 12.0 mph19.3 kmh 30.33 in1027.1 mb 0.00 in0.0 mm 0.00 in0.0 mm 0.00 in0.0 mm
05:00 PM 22.1°F-5.5°C 19.4°F-7.0°C 89% 7.0 mph NW11.3 kmh NW 12.0 mph19.3 kmh 30.32 in1026.8 mb 0.00 in0.0 mm 0.00 in0.0 mm 0.00 in0.0 mm
05:02 PM 22.0°F-5.6°C 19.3°F-7.1°C 89% 7.0 mph NW11.3 kmh NW 12.0 mph19.3 kmh 30.33 in1027.1 mb 0.00 in0.0 mm 0.00 in0.0 mm 0.00 in0.0 mm
05:04 PM 22.0°F-5.6°C 19.3°F-7.1°C 89% 7.0 mph NW11.3 kmh NW 14.0 mph22.5 kmh 30.33 in1027.1 mb 0.00 in0.0 mm 0.00 in0.0 mm 0.00 in0.0 mm
05:06 PM 22.0°F-5.6°C 19.3°F-7.1°C 89% 7.0 mph NW11.3 kmh NW 14.0 mph22.5 kmh 30.33 in1027.1 mb 0.00 in0.0 mm 0.00 in0.0 mm 0.00 in0.0 mm
05:08 PM 21.9°F-5.6°C 19.2°F-7.1°C 89% 7.0 mph NW11.3 kmh NW 16.0 mph25.7 kmh 30.33 in1027.1 mb 0.00 in0.0 mm 0.00 in0.0 mm 0.00 in0.0 mm
05:10 PM 21.9°F-5.6°C 19.2°F-7.1°C 89% 7.0 mph NW11.3 kmh NW 16.0 mph25.7 kmh 30.33 in1027.1 mb 0.00 in0.0 mm 0.00 in0.0 mm 0.00 in0.0 mm
05:12 PM 21.8°F-5.7°C 19.1°F-7.2°C 89% 7.0 mph NW11.3 kmh NW 16.0 mph25.7 kmh 30.33 in1027.1 mb 0.00 in0.0 mm 0.00 in0.0 mm 0.00 in0.0 mm
05:14 PM 21.8°F-5.7°C 19.1°F-7.2°C 89% 7.0 mph NW11.3 kmh NW 16.0 mph25.7 kmh 30.33 in1027.1 mb 0.00 in0.0 mm 0.00 in0.0 mm 0.00 in0.0 mm
05:16 PM 21.8°F-5.7°C 19.1°F-7.2°C 89% 7.0 mph NW11.3 kmh NW 16.0 mph25.7 kmh 30.34 in1027.4 mb 0.00 in0.0 mm 0.00 in0.0 mm 0.00 in0.0 mm
05:18 PM 21.8°F-5.7°C 19.1°F-7.2°C 89% 7.0 mph NW11.3 kmh NW 15.0 mph24.1 kmh 30.34 in1027.4 mb 0.00 in0.0 mm 0.00 in0.0 mm 0.00 in0.0 mm
05:20 PM 21.7°F-5.7°C 19.0°F-7.2°C 89% 7.0 mph NW11.3 kmh NW 17.0 mph27.4 kmh 30.34 in1027.4 mb 0.00 in0.0 mm 0.00 in0.0 mm 0.00 in0.0 mm
05:22 PM 21.7°F-5.7°C 19.0°F-7.2°C 89% 7.0 mph NW11.3 kmh NW 17.0 mph27.4 kmh 30.34 in1027.4 mb 0.00 in0.0 mm 0.00 in0.0 mm 0.00 in0.0 mm
05:24 PM 21.7°F-5.7°C 19.0°F-7.2°C 89% 8.0 mph NW12.9 kmh NW 18.0 mph29.0 kmh 30.34 in1027.4 mb 0.00 in0.0 mm 0.00 in0.0 mm 0.00 in0.0 mm
05:26 PM 21.7°F-5.7°C 19.0°F-7.2°C 89% 8.0 mph NW12.9 kmh NW 18.0 mph29.0 kmh 30.34 in1027.4 mb 0.00 in0.0 mm 0.00 in0.0 mm 0.00 in0.0 mm
05:28 PM 21.6°F-5.8°C 18.9°F-7.3°C 89% 7.0 mph NW11.3 kmh NW 18.0 mph29.0 kmh 30.35 in1027.8 mb 0.00 in0.0 mm 0.00 in0.0 mm 0.00 in0.0 mm
05:30 PM 21.6°F-5.8°C 18.9°F-7.3°C 89% 7.0 mph NW11.3 kmh NW 18.0 mph29.0 kmh 30.34 in1027.4 mb 0.00 in0.0 mm 0.00 in0.0 mm 0.00 in0.0 mm
05:32 PM 21.5°F-5.8°C 18.5°F-7.5°C 88% 7.0 mph NW11.3 kmh NW 18.0 mph29.0 kmh 30.34 in1027.4 mb 0.00 in0.0 mm 0.00 in0.0 mm 0.00 in0.0 mm
05:34 PM 21.5°F-5.8°C 18.5°F-7.5°C 88% 7.0 mph NW11.3 kmh NW 15.0 mph24.1 kmh 30.35 in1027.8 mb 0.00 in0.0 mm 0.00 in0.0 mm 0.00 in0.0 mm
05:36 PM 21.5°F-5.8°C 18.5°F-7.5°C 88% 7.0 mph NW11.3 kmh NW 15.0 mph24.1 kmh 30.34 in1027.4 mb 0.00 in0.0 mm 0.00 in0.0 mm 0.00 in0.0 mm
05:38 PM 21.4°F-5.9°C 18.4°F-7.6°C 88% 7.0 mph NW11.3 kmh NW 15.0 mph24.1 kmh 30.34 in1027.4 mb 0.00 in0.0 mm 0.00 in0.0 mm 0.00 in0.0 mm
05:40 PM 21.4°F-5.9°C 18.4°F-7.6°C 88% 7.0 mph NW11.3 kmh NW 15.0 mph24.1 kmh 30.35 in1027.8 mb 0.00 in0.0 mm 0.00 in0.0 mm 0.00 in0.0 mm
05:42 PM 21.4°F-5.9°C 18.4°F-7.6°C 88% 7.0 mph NW11.3 kmh NW 13.0 mph20.9 kmh 30.35 in1027.8 mb 0.00 in0.0 mm 0.00 in0.0 mm 0.00 in0.0 mm
05:44 PM 21.3°F-5.9°C 18.3°F-7.6°C 88% 7.0 mph NW11.3 kmh NW 13.0 mph20.9 kmh 30.35 in1027.8 mb 0.00 in0.0 mm 0.00 in0.0 mm 0.00 in0.0 mm
05:46 PM 21.3°F-5.9°C 18.3°F-7.6°C 88% 7.0 mph NW11.3 kmh NW 13.0 mph20.9 kmh 30.35 in1027.8 mb 0.00 in0.0 mm 0.00 in0.0 mm 0.00 in0.0 mm
05:48 PM 21.3°F-5.9°C 18.3°F-7.6°C 88% 7.0 mph NW11.3 kmh NW 15.0 mph24.1 kmh 30.36 in1028.1 mb 0.00 in0.0 mm 0.00 in0.0 mm 0.00 in0.0 mm
05:50 PM 21.3°F-5.9°C 18.3°F-7.6°C 88% 8.0 mph NW12.9 kmh NW 15.0 mph24.1 kmh 30.35 in1027.8 mb 0.00 in0.0 mm 0.00 in0.0 mm 0.00 in0.0 mm
05:52 PM 21.3°F-5.9°C 18.3°F-7.6°C 88% 8.0 mph NW12.9 kmh NW 15.0 mph24.1 kmh 30.36 in1028.1 mb 0.00 in0.0 mm 0.00 in0.0 mm 0.00 in0.0 mm
05:54 PM 21.3°F-5.9°C 18.3°F-7.6°C 88% 7.0 mph NW11.3 kmh NW 15.0 mph24.1 kmh 30.36 in1028.1 mb 0.00 in0.0 mm 0.00 in0.0 mm 0.00 in0.0 mm
05:56 PM 21.3°F-5.9°C 18.3°F-7.6°C 88% 7.0 mph NW11.3 kmh NW 15.0 mph24.1 kmh 30.36 in1028.1 mb 0.00 in0.0 mm 0.00 in0.0 mm 0.00 in0.0 mm
05:58 PM 21.2°F-6.0°C 18.2°F-7.7°C 88% 6.0 mph NW9.7 kmh NW 12.0 mph19.3 kmh 30.36 in1028.1 mb 0.00 in0.0 mm 0.00 in0.0 mm 0.00 in0.0 mm
06:00 PM 21.2°F-6.0°C 18.2°F-7.7°C 88% 6.0 mph NW9.7 kmh NW 13.0 mph20.9 kmh 30.36 in1028.1 mb 0.00 in0.0 mm 0.00 in0.0 mm 0.00 in0.0 mm
06:02 PM 21.2°F-6.0°C 18.2°F-7.7°C 88% 6.0 mph NW9.7 kmh NW 13.0 mph20.9 kmh 30.36 in1028.1 mb 0.00 in0.0 mm 0.00 in0.0 mm 0.00 in0.0 mm
06:04 PM 21.2°F-6.0°C 18.2°F-7.7°C 88% 7.0 mph NW11.3 kmh NW 13.0 mph20.9 kmh 30.36 in1028.1 mb 0.00 in0.0 mm 0.00 in0.0 mm 0.00 in0.0 mm
06:06 PM 21.2°F-6.0°C 18.2°F-7.7°C 88% 7.0 mph NW11.3 kmh NW 13.0 mph20.9 kmh 30.37 in1028.4 mb 0.00 in0.0 mm 0.00 in0.0 mm 0.00 in0.0 mm
06:08 PM 21.2°F-6.0°C 18.2°F-7.7°C 88% 7.0 mph NW11.3 kmh NW 13.0 mph20.9 kmh 30.36 in1028.1 mb 0.00 in0.0 mm 0.00 in0.0 mm 0.00 in0.0 mm
06:10 PM 21.2°F-6.0°C 18.2°F-7.7°C 88% 7.0 mph NW11.3 kmh NW 13.0 mph20.9 kmh 30.37 in1028.4 mb 0.00 in0.0 mm 0.00 in0.0 mm 0.00 in0.0 mm
06:12 PM 21.2°F-6.0°C 18.2°F-7.7°C 88% 7.0 mph NW11.3 kmh NW 13.0 mph20.9 kmh 30.37 in1028.4 mb 0.00 in0.0 mm 0.00 in0.0 mm 0.00 in0.0 mm
06:14 PM 21.2°F-6.0°C 18.2°F-7.7°C 88% 7.0 mph NW11.3 kmh NW 13.0 mph20.9 kmh 30.37 in1028.4 mb 0.00 in0.0 mm 0.00 in0.0 mm 0.00 in0.0 mm
06:16 PM 21.1°F-6.1°C 18.1°F-7.7°C 88% 7.0 mph NW11.3 kmh NW 13.0 mph20.9 kmh 30.37 in1028.4 mb 0.00 in0.0 mm 0.00 in0.0 mm 0.00 in0.0 mm
06:18 PM 21.1°F-6.1°C 18.1°F-7.7°C 88% 7.0 mph NW11.3 kmh NW 13.0 mph20.9 kmh 30.37 in1028.4 mb 0.00 in0.0 mm 0.00 in0.0 mm 0.00 in0.0 mm
06:20 PM 21.1°F-6.1°C 18.1°F-7.7°C 88% 7.0 mph NW11.3 kmh NW 15.0 mph24.1 kmh 30.37 in1028.4 mb 0.00 in0.0 mm 0.00 in0.0 mm 0.00 in0.0 mm
06:22 PM 21.1°F-6.1°C 18.1°F-7.7°C 88% 7.0 mph NW11.3 kmh NW 15.0 mph24.1 kmh 30.37 in1028.4 mb 0.00 in0.0 mm 0.00 in0.0 mm 0.00 in0.0 mm
06:24 PM 21.1°F-6.1°C 18.1°F-7.7°C 88% 7.0 mph NW11.3 kmh NW 15.0 mph24.1 kmh 30.37 in1028.4 mb 0.00 in0.0 mm 0.00 in0.0 mm 0.00 in0.0 mm
06:26 PM 21.0°F-6.1°C 17.7°F-7.9°C 87% 7.0 mph NW11.3 kmh NW 15.0 mph24.1 kmh 30.37 in1028.4 mb 0.00 in0.0 mm 0.00 in0.0 mm 0.00 in0.0 mm
06:28 PM 21.0°F-6.1°C 17.7°F-7.9°C 87% 7.0 mph NW11.3 kmh NW 15.0 mph24.1 kmh 30.37 in1028.4 mb 0.00 in0.0 mm 0.00 in0.0 mm 0.00 in0.0 mm
06:30 PM 21.0°F-6.1°C 17.7°F-7.9°C 87% 7.0 mph NW11.3 kmh NW 13.0 mph20.9 kmh 30.37 in1028.4 mb 0.00 in0.0 mm 0.00 in0.0 mm 0.00 in0.0 mm
06:32 PM 20.9°F-6.2°C 17.6°F-8.0°C 87% 7.0 mph NW11.3 kmh NW 17.0 mph27.4 kmh 30.37 in1028.4 mb 0.00 in0.0 mm 0.00 in0.0 mm 0.00 in0.0 mm
06:34 PM 20.9°F-6.2°C 17.6°F-8.0°C 87% 7.0 mph NW11.3 kmh NW 17.0 mph27.4 kmh 30.38 in1028.8 mb 0.00 in0.0 mm 0.00 in0.0 mm 0.00 in0.0 mm
06:36 PM 20.9°F-6.2°C 17.6°F-8.0°C 87% 8.0 mph NW12.9 kmh NW 17.0 mph27.4 kmh 30.38 in1028.8 mb 0.00 in0.0 mm 0.00 in0.0 mm 0.00 in0.0 mm
06:38 PM 20.8°F-6.2°C 17.3°F-8.2°C 86% 8.0 mph NW12.9 kmh NW 17.0 mph27.4 kmh 30.38 in1028.8 mb 0.00 in0.0 mm 0.00 in0.0 mm 0.00 in0.0 mm
06:40 PM 20.8°F-6.2°C 17.3°F-8.2°C 86% 8.0 mph NW12.9 kmh NW 17.0 mph27.4 kmh 30.38 in1028.8 mb 0.00 in0.0 mm 0.00 in0.0 mm 0.00 in0.0 mm
06:42 PM 20.7°F-6.3°C 17.2°F-8.2°C 86% 8.0 mph NW12.9 kmh NW 16.0 mph25.7 kmh 30.38 in1028.8 mb 0.00 in0.0 mm 0.00 in0.0 mm 0.00 in0.0 mm
06:44 PM 20.7°F-6.3°C 17.2°F-8.2°C 86% 8.0 mph NW12.9 kmh NW 16.0 mph25.7 kmh 30.38 in1028.8 mb 0.00 in0.0 mm 0.00 in0.0 mm 0.00 in0.0 mm
06:46 PM 20.7°F-6.3°C 17.2°F-8.2°C 86% 7.0 mph NW11.3 kmh NW 16.0 mph25.7 kmh 30.38 in1028.8 mb 0.00 in0.0 mm 0.00 in0.0 mm 0.00 in0.0 mm
06:48 PM 20.6°F-6.3°C 17.1°F-8.3°C 86% 8.0 mph NW12.9 kmh NW 16.0 mph25.7 kmh 30.38 in1028.8 mb 0.00 in0.0 mm 0.00 in0.0 mm 0.00 in0.0 mm
06:50 PM 20.6°F-6.3°C 16.8°F-8.4°C 85% 8.0 mph NW12.9 kmh NW 16.0 mph25.7 kmh 30.38 in1028.8 mb 0.00 in0.0 mm 0.00 in0.0 mm 0.00 in0.0 mm
06:52 PM 20.5°F-6.4°C 16.7°F-8.5°C 85% 8.0 mph NW12.9 kmh NW 16.0 mph25.7 kmh 30.38 in1028.8 mb 0.00 in0.0 mm 0.00 in0.0 mm 0.00 in0.0 mm
06:54 PM 20.5°F-6.4°C 16.7°F-8.5°C 85% 8.0 mph NW12.9 kmh NW 17.0 mph27.4 kmh 30.38 in1028.8 mb 0.00 in0.0 mm 0.00 in0.0 mm 0.00 in0.0 mm
06:56 PM 20.4°F-6.4°C 16.6°F-8.6°C 85% 8.0 mph NW12.9 kmh NW 17.0 mph27.4 kmh 30.38 in1028.8 mb 0.00 in0.0 mm 0.00 in0.0 mm 0.00 in0.0 mm
06:58 PM 20.4°F-6.4°C 16.3°F-8.7°C 84% 8.0 mph NW12.9 kmh NW 17.0 mph27.4 kmh 30.39 in1029.1 mb 0.00 in0.0 mm 0.00 in0.0 mm 0.00 in0.0 mm
07:00 PM 20.4°F-6.4°C 16.3°F-8.7°C 84% 8.0 mph NW12.9 kmh NW 17.0 mph27.4 kmh 30.39 in1029.1 mb 0.00 in0.0 mm 0.00 in0.0 mm 0.00 in0.0 mm
07:02 PM 20.4°F-6.4°C 16.3°F-8.7°C 84% 8.0 mph NW12.9 kmh NW 17.0 mph27.4 kmh 30.39 in1029.1 mb 0.00 in0.0 mm 0.00 in0.0 mm 0.00 in0.0 mm
07:04 PM 20.4°F-6.4°C 16.3°F-8.7°C 84% 8.0 mph NW12.9 kmh NW 17.0 mph27.4 kmh 30.39 in1029.1 mb 0.00 in0.0 mm 0.00 in0.0 mm 0.00 in0.0 mm
07:06 PM 20.4°F-6.4°C 16.3°F-8.7°C 84% 7.0 mph NW11.3 kmh NW 17.0 mph27.4 kmh 30.39 in1029.1 mb 0.00 in0.0 mm 0.00 in0.0 mm 0.00 in0.0 mm
07:08 PM 20.4°F-6.4°C 16.3°F-8.7°C 84% 7.0 mph NW11.3 kmh NW 13.0 mph20.9 kmh 30.39 in1029.1 mb 0.00 in0.0 mm 0.00 in0.0 mm 0.00 in0.0 mm
07:10 PM 20.3°F-6.5°C 16.2°F-8.8°C 84% 7.0 mph NW11.3 kmh NW 13.0 mph20.9 kmh 30.39 in1029.1 mb 0.00 in0.0 mm 0.00 in0.0 mm 0.00 in0.0 mm
07:12 PM 20.3°F-6.5°C 16.2°F-8.8°C 84% 7.0 mph NW11.3 kmh NW 13.0 mph20.9 kmh 30.38 in1028.8 mb 0.00 in0.0 mm 0.00 in0.0 mm 0.00 in0.0 mm
07:14 PM 20.3°F-6.5°C 16.0°F-8.9°C 83% 7.0 mph NW11.3 kmh NW 20.0 mph32.2 kmh 30.38 in1028.8 mb 0.00 in0.0 mm 0.00 in0.0 mm 0.00 in0.0 mm
07:16 PM 20.2°F-6.6°C 15.9°F-8.9°C 83% 8.0 mph NW12.9 kmh NW 20.0 mph32.2 kmh 30.39 in1029.1 mb 0.00 in0.0 mm 0.00 in0.0 mm 0.00 in0.0 mm
07:18 PM 20.2°F-6.6°C 15.9°F-8.9°C 83% 8.0 mph NW12.9 kmh NW 20.0 mph32.2 kmh 30.39 in1029.1 mb 0.00 in0.0 mm 0.00 in0.0 mm 0.00 in0.0 mm
07:20 PM 20.2°F-6.6°C 15.9°F-8.9°C 83% 8.0 mph NW12.9 kmh NW 20.0 mph32.2 kmh 30.39 in1029.1 mb 0.00 in0.0 mm 0.00 in0.0 mm 0.00 in0.0 mm
07:22 PM 20.2°F-6.6°C 15.9°F-8.9°C 83% 8.0 mph NW12.9 kmh NW 20.0 mph32.2 kmh 30.39 in1029.1 mb 0.00 in0.0 mm 0.00 in0.0 mm 0.00 in0.0 mm
07:24 PM 20.2°F-6.6°C 15.6°F-9.1°C 82% 8.0 mph NW12.9 kmh NW 14.0 mph22.5 kmh 30.39 in1029.1 mb 0.00 in0.0 mm 0.00 in0.0 mm 0.00 in0.0 mm
07:26 PM 20.1°F-6.6°C 15.8°F-9.0°C 83% 8.0 mph NW12.9 kmh NW 14.0 mph22.5 kmh 30.39 in1029.1 mb 0.00 in0.0 mm 0.00 in0.0 mm 0.00 in0.0 mm
07:28 PM 20.1°F-6.6°C 15.5°F-9.2°C 82% 8.0 mph NW12.9 kmh NW 14.0 mph22.5 kmh 30.39 in1029.1 mb 0.00 in0.0 mm 0.00 in0.0 mm 0.00 in0.0 mm
07:30 PM 20.0°F-6.7°C 15.4°F-9.2°C 82% 7.0 mph NW11.3 kmh NW 14.0 mph22.5 kmh 30.39 in1029.1 mb 0.00 in0.0 mm 0.00 in0.0 mm 0.00 in0.0 mm
07:32 PM 20.0°F-6.7°C 15.4°F-9.2°C 82% 7.0 mph NW11.3 kmh NW 13.0 mph20.9 kmh 30.39 in1029.1 mb 0.00 in0.0 mm 0.00 in0.0 mm 0.00 in0.0 mm
07:34 PM 20.0°F-6.7°C 15.4°F-9.2°C 82% 8.0 mph NW12.9 kmh NW 13.0 mph20.9 kmh 30.39 in1029.1 mb 0.00 in0.0 mm 0.00 in0.0 mm 0.00 in0.0 mm
07:36 PM 20.0°F-6.7°C 15.4°F-9.2°C 82% 8.0 mph NW12.9 kmh NW 13.0 mph20.9 kmh 30.40 in1029.5 mb 0.00 in0.0 mm 0.00 in0.0 mm 0.00 in0.0 mm
07:38 PM 20.0°F-6.7°C 15.4°F-9.2°C 82% 8.0 mph NW12.9 kmh NW 13.0 mph20.9 kmh 30.40 in1029.5 mb 0.00 in0.0 mm 0.00 in0.0 mm 0.00 in0.0 mm
07:40 PM 19.9°F-6.7°C 15.3°F-9.3°C 82% 8.0 mph NW12.9 kmh NW 13.0 mph20.9 kmh 30.40 in1029.5 mb 0.00 in0.0 mm 0.00 in0.0 mm 0.00 in0.0 mm
07:42 PM 19.9°F-6.7°C 15.3°F-9.3°C 82% 8.0 mph NW12.9 kmh NW 13.0 mph20.9 kmh 30.40 in1029.5 mb 0.00 in0.0 mm 0.00 in0.0 mm 0.00 in0.0 mm
07:44 PM 19.9°F-6.7°C 15.0°F-9.4°C 81% 7.0 mph NW11.3 kmh NW 13.0 mph20.9 kmh 30.40 in1029.5 mb 0.00 in0.0 mm 0.00 in0.0 mm 0.00 in0.0 mm
07:46 PM 19.9°F-6.7°C 15.0°F-9.4°C 81% 7.0 mph NW11.3 kmh NW 16.0 mph25.7 kmh 30.41 in1029.8 mb 0.00 in0.0 mm 0.00 in0.0 mm 0.00 in0.0 mm
07:48 PM 19.9°F-6.7°C 15.0°F-9.4°C 81% 7.0 mph NW11.3 kmh NW 16.0 mph25.7 kmh 30.41 in1029.8 mb 0.00 in0.0 mm 0.00 in0.0 mm 0.00 in0.0 mm
07:50 PM 19.8°F-6.8°C 14.9°F-9.5°C 81% 7.0 mph NW11.3 kmh NW 16.0 mph25.7 kmh 30.41 in1029.8 mb 0.00 in0.0 mm 0.00 in0.0 mm 0.00 in0.0 mm
07:52 PM 19.8°F-6.8°C 14.9°F-9.5°C 81% 7.0 mph NW11.3 kmh NW 16.0 mph25.7 kmh 30.41 in1029.8 mb 0.00 in0.0 mm 0.00 in0.0 mm 0.00 in0.0 mm
07:54 PM 19.7°F-6.8°C 14.8°F-9.6°C 81% 7.0 mph NW11.3 kmh NW 16.0 mph25.7 kmh 30.41 in1029.8 mb 0.00 in0.0 mm 0.00 in0.0 mm 0.00 in0.0 mm
07:56 PM 19.7°F-6.8°C 14.5°F-9.7°C 80% 7.0 mph NW11.3 kmh NW 15.0 mph24.1 kmh 30.41 in1029.8 mb 0.00 in0.0 mm 0.00 in0.0 mm 0.00 in0.0 mm
07:58 PM 19.6°F-6.9°C 14.4°F-9.8°C 80% 7.0 mph NW11.3 kmh NW 15.0 mph24.1 kmh 30.41 in1029.8 mb 0.00 in0.0 mm 0.00 in0.0 mm 0.00 in0.0 mm
08:00 PM 19.5°F-6.9°C 14.3°F-9.8°C 80% 7.0 mph NW11.3 kmh NW 15.0 mph24.1 kmh 30.41 in1029.8 mb 0.00 in0.0 mm 0.00 in0.0 mm 0.00 in0.0 mm
08:02 PM 19.4°F-7.0°C 14.2°F-9.9°C 80% 7.0 mph NW11.3 kmh NW 15.0 mph24.1 kmh 30.41 in1029.8 mb 0.00 in0.0 mm 0.00 in0.0 mm 0.00 in0.0 mm
08:04 PM 19.3°F-7.1°C 14.1°F-9.9°C 80% 7.0 mph NW11.3 kmh NW 19.0 mph30.6 kmh 30.41 in1029.8 mb 0.00 in0.0 mm 0.00 in0.0 mm 0.00 in0.0 mm
08:06 PM 19.2°F-7.1°C 14.0°F-10.0°C 80% 7.0 mph NW11.3 kmh NW 19.0 mph30.6 kmh 30.41 in1029.8 mb 0.00 in0.0 mm 0.00 in0.0 mm 0.00 in0.0 mm
08:08 PM 19.1°F-7.2°C 13.9°F-10.1°C 80% 7.0 mph NW11.3 kmh NW 19.0 mph30.6 kmh 30.41 in1029.8 mb 0.00 in0.0 mm 0.00 in0.0 mm 0.00 in0.0 mm
08:10 PM 19.0°F-7.2°C 13.8°F-10.1°C 80% 6.0 mph NW9.7 kmh NW 19.0 mph30.6 kmh 30.41 in1029.8 mb 0.00 in0.0 mm 0.00 in0.0 mm 0.00 in0.0 mm
08:12 PM 18.8°F-7.3°C 13.7°F-10.2°C 80% 6.0 mph NW9.7 kmh NW 19.0 mph30.6 kmh 30.41 in1029.8 mb 0.00 in0.0 mm 0.00 in0.0 mm 0.00 in0.0 mm
08:14 PM 18.6°F-7.4°C 13.2°F-10.4°C 79% 6.0 mph NW9.7 kmh NW 11.0 mph17.7 kmh 30.42 in1030.1 mb 0.00 in0.0 mm 0.00 in0.0 mm 0.00 in0.0 mm
08:16 PM 18.4°F-7.6°C 13.3°F-10.4°C 80% 6.0 mph NW9.7 kmh NW 11.0 mph17.7 kmh 30.42 in1030.1 mb 0.00 in0.0 mm 0.00 in0.0 mm 0.00 in0.0 mm
08:18 PM 18.2°F-7.7°C 13.1°F-10.5°C 80% 6.0 mph NW9.7 kmh NW 13.0 mph20.9 kmh 30.42 in1030.1 mb 0.00 in0.0 mm 0.00 in0.0 mm 0.00 in0.0 mm
08:20 PM 18.1°F-7.7°C 13.0°F-10.6°C 80% 6.0 mph NW9.7 kmh NW 13.0 mph20.9 kmh 30.42 in1030.1 mb 0.00 in0.0 mm 0.00 in0.0 mm 0.00 in0.0 mm
08:22 PM 17.9°F-7.8°C 12.8°F-10.7°C 80% 6.0 mph NW9.7 kmh NW 13.0 mph20.9 kmh 30.42 in1030.1 mb 0.00 in0.0 mm 0.00 in0.0 mm 0.00 in0.0 mm
08:24 PM 17.7°F-7.9°C 12.6°F-10.8°C 80% 7.0 mph NW11.3 kmh NW 14.0 mph22.5 kmh 30.42 in1030.1 mb 0.00 in0.0 mm 0.00 in0.0 mm 0.00 in0.0 mm
08:26 PM 17.6°F-8.0°C 12.5°F-10.8°C 80% 7.0 mph NW11.3 kmh NW 14.0 mph22.5 kmh 30.42 in1030.1 mb 0.00 in0.0 mm 0.00 in0.0 mm 0.00 in0.0 mm
08:28 PM 17.5°F-8.1°C 12.4°F-10.9°C 80% 8.0 mph NW12.9 kmh NW 14.0 mph22.5 kmh 30.42 in1030.1 mb 0.00 in0.0 mm 0.00 in0.0 mm 0.00 in0.0 mm
08:30 PM 17.5°F-8.1°C 12.4°F-10.9°C 80% 7.0 mph NW11.3 kmh NW 14.0 mph22.5 kmh 30.42 in1030.1 mb 0.00 in0.0 mm 0.00 in0.0 mm 0.00 in0.0 mm
08:32 PM 17.3°F-8.2°C 12.2°F-11.0°C 80% 7.0 mph NW11.3 kmh NW 14.0 mph22.5 kmh 30.42 in1030.1 mb 0.00 in0.0 mm 0.00 in0.0 mm 0.00 in0.0 mm
08:34 PM 17.2°F-8.2°C 12.1°F-11.1°C 80% 7.0 mph NW11.3 kmh NW 14.0 mph22.5 kmh 30.42 in1030.1 mb 0.00 in0.0 mm 0.00 in0.0 mm 0.00 in0.0 mm
08:36 PM 17.1°F-8.3°C 12.0°F-11.1°C 80% 7.0 mph NW11.3 kmh NW 14.0 mph22.5 kmh 30.42 in1030.1 mb 0.00 in0.0 mm 0.00 in0.0 mm 0.00 in0.0 mm
08:38 PM 17.1°F-8.3°C 12.0°F-11.1°C 80% 7.0 mph NW11.3 kmh NW 14.0 mph22.5 kmh 30.42 in1030.1 mb 0.00 in0.0 mm 0.00 in0.0 mm 0.00 in0.0 mm
08:40 PM 17.0°F-8.3°C 11.9°F-11.2°C 80% 7.0 mph NW11.3 kmh NW 14.0 mph22.5 kmh 30.42 in1030.1 mb 0.00 in0.0 mm 0.00 in0.0 mm 0.00 in0.0 mm
08:42 PM 16.9°F-8.4°C 11.8°F-11.2°C 80% 7.0 mph NW11.3 kmh NW 15.0 mph24.1 kmh 30.42 in1030.1 mb 0.00 in0.0 mm 0.00 in0.0 mm 0.00 in0.0 mm
08:44 PM 16.9°F-8.4°C 11.8°F-11.2°C 80% 7.0 mph NW11.3 kmh NW 15.0 mph24.1 kmh 30.42 in1030.1 mb 0.00 in0.0 mm 0.00 in0.0 mm 0.00 in0.0 mm
08:46 PM 16.8°F-8.4°C 11.7°F-11.3°C 80% 7.0 mph NW11.3 kmh NW 15.0 mph24.1 kmh 30.42 in1030.1 mb 0.00 in0.0 mm 0.00 in0.0 mm 0.00 in0.0 mm
08:48 PM 16.8°F-8.4°C 11.7°F-11.3°C 80% 7.0 mph NW11.3 kmh NW 15.0 mph24.1 kmh 30.42 in1030.1 mb 0.00 in0.0 mm 0.00 in0.0 mm 0.00 in0.0 mm
08:50 PM 16.7°F-8.5°C 11.6°F-11.3°C 80% 7.0 mph NW11.3 kmh NW 15.0 mph24.1 kmh 30.42 in1030.1 mb 0.00 in0.0 mm 0.00 in0.0 mm 0.00 in0.0 mm
08:52 PM 16.6°F-8.6°C 11.5°F-11.4°C 80% 7.0 mph NW11.3 kmh NW 13.0 mph20.9 kmh 30.42 in1030.1 mb 0.00 in0.0 mm 0.00 in0.0 mm 0.00 in0.0 mm
08:54 PM 16.6°F-8.6°C 11.5°F-11.4°C 80% 6.0 mph NW9.7 kmh NW 12.0 mph19.3 kmh 30.43 in1030.5 mb 0.00 in0.0 mm 0.00 in0.0 mm 0.00 in0.0 mm
08:56 PM 16.6°F-8.6°C 11.5°F-11.4°C 80% 6.0 mph NW9.7 kmh NW 12.0 mph19.3 kmh 30.43 in1030.5 mb 0.00 in0.0 mm 0.00 in0.0 mm 0.00 in0.0 mm
08:58 PM 16.5°F-8.6°C 11.4°F-11.4°C 80% 6.0 mph NW9.7 kmh NW 11.0 mph17.7 kmh 30.43 in1030.5 mb 0.00 in0.0 mm 0.00 in0.0 mm 0.00 in0.0 mm
09:00 PM 16.4°F-8.7°C 11.6°F-11.3°C 81% 6.0 mph NW9.7 kmh NW 11.0 mph17.7 kmh 30.43 in1030.5 mb 0.00 in0.0 mm 0.00 in0.0 mm 0.00 in0.0 mm
09:02 PM 16.4°F-8.7°C 11.6°F-11.3°C 81% 6.0 mph NW9.7 kmh NW 12.0 mph19.3 kmh 30.43 in1030.5 mb 0.00 in0.0 mm 0.00 in0.0 mm 0.00 in0.0 mm
09:04 PM 16.3°F-8.7°C 11.2°F-11.6°C 80% 7.0 mph NW11.3 kmh NW 12.0 mph19.3 kmh 30.43 in1030.5 mb 0.00 in0.0 mm 0.00 in0.0 mm 0.00 in0.0 mm
09:06 PM 16.3°F-8.7°C 11.2°F-11.6°C 80% 7.0 mph NW11.3 kmh NW 13.0 mph20.9 kmh 30.43 in1030.5 mb 0.00 in0.0 mm 0.00 in0.0 mm 0.00 in0.0 mm
09:08 PM 16.3°F-8.7°C 11.2°F-11.6°C 80% 7.0 mph NW11.3 kmh NW 13.0 mph20.9 kmh 30.43 in1030.5 mb 0.00 in0.0 mm 0.00 in0.0 mm 0.00 in0.0 mm
09:10 PM 16.2°F-8.8°C 11.1°F-11.6°C 80% 8.0 mph NW12.9 kmh NW 16.0 mph25.7 kmh 30.43 in1030.5 mb 0.00 in0.0 mm 0.00 in0.0 mm 0.00 in0.0 mm
09:12 PM 16.2°F-8.8°C 11.1°F-11.6°C 80% 8.0 mph NW12.9 kmh NW 16.0 mph25.7 kmh 30.43 in1030.5 mb 0.00 in0.0 mm 0.00 in0.0 mm 0.00 in0.0 mm
09:14 PM 16.2°F-8.8°C 11.1°F-11.6°C 80% 8.0 mph NW12.9 kmh NW 16.0 mph25.7 kmh 30.43 in1030.5 mb 0.00 in0.0 mm 0.00 in0.0 mm 0.00 in0.0 mm
09:16 PM 16.1°F-8.8°C 11.0°F-11.7°C 80% 8.0 mph NW12.9 kmh NW 16.0 mph25.7 kmh 30.43 in1030.5 mb 0.00 in0.0 mm 0.00 in0.0 mm 0.00 in0.0 mm
09:18 PM 16.1°F-8.8°C 11.0°F-11.7°C 80% 7.0 mph NW11.3 kmh NW 16.0 mph25.7 kmh 30.43 in1030.5 mb 0.00 in0.0 mm 0.00 in0.0 mm 0.00 in0.0 mm
09:20 PM 16.0°F-8.9°C 10.9°F-11.7°C 80% 7.0 mph NW11.3 kmh NW 14.0 mph22.5 kmh 30.44 in1030.8 mb 0.00 in0.0 mm 0.00 in0.0 mm 0.00 in0.0 mm
09:22 PM 16.0°F-8.9°C 10.9°F-11.7°C 80% 7.0 mph NW11.3 kmh NW 14.0 mph22.5 kmh 30.44 in1030.8 mb 0.00 in0.0 mm 0.00 in0.0 mm 0.00 in0.0 mm
09:24 PM 15.9°F-8.9°C 10.8°F-11.8°C 80% 6.0 mph NW9.7 kmh NW 14.0 mph22.5 kmh 30.44 in1030.8 mb 0.00 in0.0 mm 0.00 in0.0 mm 0.00 in0.0 mm
09:26 PM 15.8°F-9.0°C 11.0°F-11.7°C 81% 6.0 mph NW9.7 kmh NW 14.0 mph22.5 kmh 30.44 in1030.8 mb 0.00 in0.0 mm 0.00 in0.0 mm 0.00 in0.0 mm
09:28 PM 15.7°F-9.1°C 10.9°F-11.7°C 81% 6.0 mph NW9.7 kmh NW 14.0 mph22.5 kmh 30.44 in1030.8 mb 0.00 in0.0 mm 0.00 in0.0 mm 0.00 in0.0 mm
09:30 PM 15.7°F-9.1°C 10.6°F-11.9°C 80% 6.0 mph NW9.7 kmh NW 14.0 mph22.5 kmh 30.44 in1030.8 mb 0.00 in0.0 mm 0.00 in0.0 mm 0.00 in0.0 mm
09:32 PM 15.6°F-9.1°C 10.8°F-11.8°C 81% 6.0 mph NW9.7 kmh NW 14.0 mph22.5 kmh 30.44 in1030.8 mb 0.00 in0.0 mm 0.00 in0.0 mm 0.00 in0.0 mm
09:34 PM 15.6°F-9.1°C 10.5°F-11.9°C 80% 7.0 mph NW11.3 kmh NW 14.0 mph22.5 kmh 30.44 in1030.8 mb 0.00 in0.0 mm 0.00 in0.0 mm 0.00 in0.0 mm
09:36 PM 15.6°F-9.1°C 10.5°F-11.9°C 80% 7.0 mph NW11.3 kmh NW 14.0 mph22.5 kmh 30.44 in1030.8 mb 0.00 in0.0 mm 0.00 in0.0 mm 0.00 in0.0 mm
09:38 PM 15.5°F-9.2°C 10.4°F-12.0°C 80% 7.0 mph NW11.3 kmh NW 14.0 mph22.5 kmh 30.44 in1030.8 mb 0.00 in0.0 mm 0.00 in0.0 mm 0.00 in0.0 mm
09:40 PM 15.5°F-9.2°C 10.4°F-12.0°C 80% 7.0 mph NW11.3 kmh NW 16.0 mph25.7 kmh 30.44 in1030.8 mb 0.00 in0.0 mm 0.00 in0.0 mm 0.00 in0.0 mm
09:42 PM 15.5°F-9.2°C 10.4°F-12.0°C 80% 7.0 mph NW11.3 kmh NW 16.0 mph25.7 kmh 30.44 in1030.8 mb 0.00 in0.0 mm 0.00 in0.0 mm 0.00 in0.0 mm
09:44 PM 15.5°F-9.2°C 10.4°F-12.0°C 80% 6.0 mph NW9.7 kmh NW 16.0 mph25.7 kmh 30.44 in1030.8 mb 0.00 in0.0 mm 0.00 in0.0 mm 0.00 in0.0 mm
09:46 PM 15.4°F-9.2°C 10.3°F-12.1°C 80% 6.0 mph NW9.7 kmh NW 16.0 mph25.7 kmh 30.44 in1030.8 mb 0.00 in0.0 mm 0.00 in0.0 mm 0.00 in0.0 mm
09:48 PM 15.3°F-9.3°C 10.2°F-12.1°C 80% 6.0 mph NW9.7 kmh NW 16.0 mph25.7 kmh 30.44 in1030.8 mb 0.00 in0.0 mm 0.00 in0.0 mm 0.00 in0.0 mm
09:50 PM 15.3°F-9.3°C 10.2°F-12.1°C 80% 6.0 mph NW9.7 kmh NW 12.0 mph19.3 kmh 30.44 in1030.8 mb 0.00 in0.0 mm 0.00 in0.0 mm 0.00 in0.0 mm
09:52 PM 15.2°F-9.3°C 10.1°F-12.2°C 80% 5.0 mph NW8.0 kmh NW 12.0 mph19.3 kmh 30.44 in1030.8 mb 0.00 in0.0 mm 0.00 in0.0 mm 0.00 in0.0 mm
09:54 PM 15.2°F-9.3°C 10.1°F-12.2°C 80% 6.0 mph NW9.7 kmh NW 11.0 mph17.7 kmh 30.44 in1030.8 mb 0.00 in0.0 mm 0.00 in0.0 mm 0.00 in0.0 mm
09:56 PM 15.2°F-9.3°C 10.1°F-12.2°C 80% 5.0 mph NW8.0 kmh NW 11.0 mph17.7 kmh 30.44 in1030.8 mb 0.00 in0.0 mm 0.00 in0.0 mm 0.00 in0.0 mm
09:58 PM 15.2°F-9.3°C 10.1°F-12.2°C 80% 5.0 mph NW8.0 kmh NW 11.0 mph17.7 kmh 30.44 in1030.8 mb 0.00 in0.0 mm 0.00 in0.0 mm 0.00 in0.0 mm
10:00 PM 15.1°F-9.4°C 10.0°F-12.2°C 80% 5.0 mph NW8.0 kmh NW 11.0 mph17.7 kmh 30.44 in1030.8 mb 0.00 in0.0 mm 0.00 in0.0 mm 0.00 in0.0 mm
10:02 PM 15.1°F-9.4°C 10.0°F-12.2°C 80% 5.0 mph NW8.0 kmh NW 11.0 mph17.7 kmh 30.44 in1030.8 mb 0.00 in0.0 mm 0.00 in0.0 mm 0.00 in0.0 mm
10:04 PM 15.1°F-9.4°C 10.0°F-12.2°C 80% 5.0 mph NW8.0 kmh NW 11.0 mph17.7 kmh 30.45 in1031.2 mb 0.00 in0.0 mm 0.00 in0.0 mm 0.00 in0.0 mm
10:06 PM 15.1°F-9.4°C 10.0°F-12.2°C 80% 5.0 mph NW8.0 kmh NW 12.0 mph19.3 kmh 30.45 in1031.2 mb 0.00 in0.0 mm 0.00 in0.0 mm 0.00 in0.0 mm
10:08 PM 15.0°F-9.4°C 9.9°F-12.3°C 80% 5.0 mph NW8.0 kmh NW 12.0 mph19.3 kmh 30.45 in1031.2 mb 0.00 in0.0 mm 0.00 in0.0 mm 0.00 in0.0 mm
10:10 PM 15.0°F-9.4°C 9.9°F-12.3°C 80% 6.0 mph NW9.7 kmh NW 12.0 mph19.3 kmh 30.45 in1031.2 mb 0.00 in0.0 mm 0.00 in0.0 mm 0.00 in0.0 mm
10:12 PM 15.0°F-9.4°C 9.9°F-12.3°C 80% 6.0 mph NW9.7 kmh NW 12.0 mph19.3 kmh 30.45 in1031.2 mb 0.00 in0.0 mm 0.00 in0.0 mm 0.00 in0.0 mm
10:14 PM 15.0°F-9.4°C 9.9°F-12.3°C 80% 6.0 mph NW9.7 kmh NW 13.0 mph20.9 kmh 30.45 in1031.2 mb 0.00 in0.0 mm 0.00 in0.0 mm 0.00 in0.0 mm
10:16 PM 15.0°F-9.4°C 9.9°F-12.3°C 80% 7.0 mph NW11.3 kmh NW 13.0 mph20.9 kmh 30.45 in1031.2 mb 0.00 in0.0 mm 0.00 in0.0 mm 0.00 in0.0 mm
10:18 PM 15.0°F-9.4°C 9.9°F-12.3°C 80% 7.0 mph NW11.3 kmh NW 13.0 mph20.9 kmh 30.45 in1031.2 mb 0.00 in0.0 mm 0.00 in0.0 mm 0.00 in0.0 mm
10:20 PM 15.0°F-9.4°C 9.9°F-12.3°C 80% 6.0 mph NW9.7 kmh NW 13.0 mph20.9 kmh 30.45 in1031.2 mb 0.00 in0.0 mm 0.00 in0.0 mm 0.00 in0.0 mm
10:22 PM 14.9°F-9.5°C 9.8°F-12.3°C 80% 7.0 mph NW11.3 kmh NW 13.0 mph20.9 kmh 30.45 in1031.2 mb 0.00 in0.0 mm 0.00 in0.0 mm 0.00 in0.0 mm
10:24 PM 14.8°F-9.6°C 9.7°F-12.4°C 80% 7.0 mph NW11.3 kmh NW 14.0 mph22.5 kmh 30.45 in1031.2 mb 0.00 in0.0 mm 0.00 in0.0 mm 0.00 in0.0 mm
10:26 PM 14.8°F-9.6°C 9.7°F-12.4°C 80% 7.0 mph NW11.3 kmh NW 14.0 mph22.5 kmh 30.45 in1031.2 mb 0.00 in0.0 mm 0.00 in0.0 mm 0.00 in0.0 mm
10:28 PM 14.8°F-9.6°C 9.7°F-12.4°C 80% 7.0 mph NW11.3 kmh NW 14.0 mph22.5 kmh 30.45 in1031.2 mb 0.00 in0.0 mm 0.00 in0.0 mm 0.00 in0.0 mm
10:30 PM 14.8°F-9.6°C 9.7°F-12.4°C 80% 7.0 mph NW11.3 kmh NW 14.0 mph22.5 kmh 30.45 in1031.2 mb 0.00 in0.0 mm 0.00 in0.0 mm 0.00 in0.0 mm
10:32 PM 14.8°F-9.6°C 9.7°F-12.4°C 80% 7.0 mph NW11.3 kmh NW 14.0 mph22.5 kmh 30.45 in1031.2 mb 0.00 in0.0 mm 0.00 in0.0 mm 0.00 in0.0 mm
10:34 PM 14.8°F-9.6°C 9.7°F-12.4°C 80% 7.0 mph NW11.3 kmh NW 14.0 mph22.5 kmh 30.45 in1031.2 mb 0.00 in0.0 mm 0.00 in0.0 mm 0.00 in0.0 mm
10:36 PM 14.8°F-9.6°C 9.7°F-12.4°C 80% 6.0 mph NW9.7 kmh NW 14.0 mph22.5 kmh 30.45 in1031.2 mb 0.00 in0.0 mm 0.00 in0.0 mm 0.00 in0.0 mm
10:38 PM 14.8°F-9.6°C 9.7°F-12.4°C 80% 7.0 mph NW11.3 kmh NW 13.0 mph20.9 kmh 30.45 in1031.2 mb 0.00 in0.0 mm 0.00 in0.0 mm 0.00 in0.0 mm
10:40 PM 14.6°F-9.7°C 9.6°F-12.4°C 80% 6.0 mph NW9.7 kmh NW 13.0 mph20.9 kmh 30.45 in1031.2 mb 0.00 in0.0 mm 0.00 in0.0 mm 0.00 in0.0 mm
10:42 PM 14.5°F-9.7°C 9.5°F-12.5°C 80% 6.0 mph NW9.7 kmh NW 11.0 mph17.7 kmh 30.45 in1031.2 mb 0.00 in0.0 mm 0.00 in0.0 mm 0.00 in0.0 mm
10:44 PM 14.4°F-9.8°C 9.6°F-12.4°C 81% 6.0 mph NW9.7 kmh NW 11.0 mph17.7 kmh 30.45 in1031.2 mb 0.00 in0.0 mm 0.00 in0.0 mm 0.00 in0.0 mm
10:46 PM 14.4°F-9.8°C 9.4°F-12.6°C 80% 5.0 mph NW8.0 kmh NW 11.0 mph17.7 kmh 30.45 in1031.2 mb 0.00 in0.0 mm 0.00 in0.0 mm 0.00 in0.0 mm
10:48 PM 14.3°F-9.8°C 9.5°F-12.5°C 81% 5.0 mph NW8.0 kmh NW 11.0 mph17.7 kmh 30.45 in1031.2 mb 0.00 in0.0 mm 0.00 in0.0 mm 0.00 in0.0 mm
10:50 PM 14.1°F-9.9°C 9.3°F-12.6°C 81% 5.0 mph NW8.0 kmh NW 11.0 mph17.7 kmh 30.45 in1031.2 mb 0.00 in0.0 mm 0.00 in0.0 mm 0.00 in0.0 mm
10:52 PM 14.1°F-9.9°C 9.3°F-12.6°C 81% 5.0 mph NW8.0 kmh NW 9.0 mph14.5 kmh 30.45 in1031.2 mb 0.00 in0.0 mm 0.00 in0.0 mm 0.00 in0.0 mm
10:54 PM 14.0°F-10.0°C 9.2°F-12.7°C 81% 4.0 mph NW6.4 kmh NW 9.0 mph14.5 kmh 30.45 in1031.2 mb 0.00 in0.0 mm 0.00 in0.0 mm 0.00 in0.0 mm
10:56 PM 13.9°F-10.1°C 9.1°F-12.7°C 81% 5.0 mph NW8.0 kmh NW 11.0 mph17.7 kmh 30.46 in1031.5 mb 0.00 in0.0 mm 0.00 in0.0 mm 0.00 in0.0 mm
10:58 PM 13.9°F-10.1°C 9.1°F-12.7°C 81% 5.0 mph NW8.0 kmh NW 12.0 mph19.3 kmh 30.46 in1031.5 mb 0.00 in0.0 mm 0.00 in0.0 mm 0.00 in0.0 mm
11:00 PM 13.8°F-10.1°C 9.0°F-12.8°C 81% 5.0 mph NW8.0 kmh NW 12.0 mph19.3 kmh 30.46 in1031.5 mb 0.00 in0.0 mm 0.00 in0.0 mm 0.00 in0.0 mm
11:02 PM 13.8°F-10.1°C 9.0°F-12.8°C 81% 6.0 mph NW9.7 kmh NW 12.0 mph19.3 kmh 30.46 in1031.5 mb 0.00 in0.0 mm 0.00 in0.0 mm 0.00 in0.0 mm
11:04 PM 13.7°F-10.2°C 9.0°F-12.8°C 81% 6.0 mph NW9.7 kmh NW 12.0 mph19.3 kmh 30.46 in1031.5 mb 0.00 in0.0 mm 0.00 in0.0 mm 0.00 in0.0 mm
11:06 PM 13.7°F-10.2°C 9.0°F-12.8°C 81% 5.0 mph NW8.0 kmh NW 12.0 mph19.3 kmh 30.46 in1031.5 mb 0.00 in0.0 mm 0.00 in0.0 mm 0.00 in0.0 mm
11:08 PM 13.6°F-10.2°C 8.9°F-12.8°C 81% 5.0 mph NW8.0 kmh NW 10.0 mph16.1 kmh 30.46 in1031.5 mb 0.00 in0.0 mm 0.00 in0.0 mm 0.00 in0.0 mm
11:10 PM 13.5°F-10.3°C 8.8°F-12.9°C 81% 5.0 mph NW8.0 kmh NW 10.0 mph16.1 kmh 30.46 in1031.5 mb 0.00 in0.0 mm 0.00 in0.0 mm 0.00 in0.0 mm
11:12 PM 13.4°F-10.3°C 8.7°F-12.9°C 81% 5.0 mph NW8.0 kmh NW 10.0 mph16.1 kmh 30.46 in1031.5 mb 0.00 in0.0 mm 0.00 in0.0 mm 0.00 in0.0 mm
11:14 PM 13.4°F-10.3°C 8.9°F-12.8°C 82% 4.0 mph NW6.4 kmh NW 10.0 mph16.1 kmh 30.46 in1031.5 mb 0.00 in0.0 mm 0.00 in0.0 mm 0.00 in0.0 mm
11:16 PM 13.3°F-10.4°C 8.8°F-12.9°C 82% 4.0 mph NW6.4 kmh NW 10.0 mph16.1 kmh 30.46 in1031.5 mb 0.00 in0.0 mm 0.00 in0.0 mm 0.00 in0.0 mm
11:18 PM 13.2°F-10.4°C 8.7°F-12.9°C 82% 4.0 mph NW6.4 kmh NW 10.0 mph16.1 kmh 30.46 in1031.5 mb 0.00 in0.0 mm 0.00 in0.0 mm 0.00 in0.0 mm
11:20 PM 13.2°F-10.4°C 8.7°F-12.9°C 82% 4.0 mph NW6.4 kmh NW 10.0 mph16.1 kmh 30.46 in1031.5 mb 0.00 in0.0 mm 0.00 in0.0 mm 0.00 in0.0 mm
11:22 PM 13.2°F-10.4°C 8.7°F-12.9°C 82% 4.0 mph NW6.4 kmh NW 8.0 mph12.9 kmh 30.46 in1031.5 mb 0.00 in0.0 mm 0.00 in0.0 mm 0.00 in0.0 mm
11:24 PM 13.1°F-10.5°C 8.6°F-13.0°C 82% 4.0 mph NW6.4 kmh NW 10.0 mph16.1 kmh 30.46 in1031.5 mb 0.00 in0.0 mm 0.00 in0.0 mm 0.00 in0.0 mm
11:26 PM 13.0°F-10.6°C 8.5°F-13.1°C 82% 4.0 mph NW6.4 kmh NW 10.0 mph16.1 kmh 30.46 in1031.5 mb 0.00 in0.0 mm 0.00 in0.0 mm 0.00 in0.0 mm
11:28 PM 13.0°F-10.6°C 8.5°F-13.1°C 82% 5.0 mph NW8.0 kmh NW 11.0 mph17.7 kmh 30.46 in1031.5 mb 0.00 in0.0 mm 0.00 in0.0 mm 0.00 in0.0 mm
11:30 PM 13.0°F-10.6°C 8.5°F-13.1°C 82% 5.0 mph NW8.0 kmh NW 11.0 mph17.7 kmh 30.46 in1031.5 mb 0.00 in0.0 mm 0.00 in0.0 mm 0.00 in0.0 mm
11:32 PM 12.9°F-10.6°C 8.4°F-13.1°C 82% 5.0 mph NW8.0 kmh NW 11.0 mph17.7 kmh 30.46 in1031.5 mb 0.00 in0.0 mm 0.00 in0.0 mm 0.00 in0.0 mm
11:34 PM 12.9°F-10.6°C 8.4°F-13.1°C 82% 5.0 mph NW8.0 kmh NW 11.0 mph17.7 kmh 30.46 in1031.5 mb 0.00 in0.0 mm 0.00 in0.0 mm 0.00 in0.0 mm
11:36 PM 12.8°F-10.7°C 8.3°F-13.2°C 82% 5.0 mph NW8.0 kmh NW 11.0 mph17.7 kmh 30.46 in1031.5 mb 0.00 in0.0 mm 0.00 in0.0 mm 0.00 in0.0 mm
11:38 PM 12.8°F-10.7°C 8.3°F-13.2°C 82% 4.0 mph NW6.4 kmh NW 9.0 mph14.5 kmh 30.46 in1031.5 mb 0.00 in0.0 mm 0.00 in0.0 mm 0.00 in0.0 mm
11:40 PM 12.7°F-10.7°C 8.2°F-13.2°C 82% 4.0 mph NW6.4 kmh NW 9.0 mph14.5 kmh 30.46 in1031.5 mb 0.00 in0.0 mm 0.00 in0.0 mm 0.00 in0.0 mm
11:42 PM 12.7°F-10.7°C 8.2°F-13.2°C 82% 4.0 mph NW6.4 kmh NW 9.0 mph14.5 kmh 30.46 in1031.5 mb 0.00 in0.0 mm 0.00 in0.0 mm 0.00 in0.0 mm
11:44 PM 12.6°F-10.8°C 8.1°F-13.3°C 82% 4.0 mph NW6.4 kmh NW 9.0 mph14.5 kmh 30.46 in1031.5 mb 0.00 in0.0 mm 0.00 in0.0 mm 0.00 in0.0 mm
11:46 PM 12.6°F-10.8°C 8.1°F-13.3°C 82% 4.0 mph NW6.4 kmh NW 8.0 mph12.9 kmh 30.46 in1031.5 mb 0.00 in0.0 mm 0.00 in0.0 mm 0.00 in0.0 mm
11:48 PM 12.5°F-10.8°C 8.0°F-13.3°C 82% 4.0 mph NW6.4 kmh NW 9.0 mph14.5 kmh 30.47 in1031.8 mb 0.00 in0.0 mm 0.00 in0.0 mm 0.00 in0.0 mm
11:50 PM 12.5°F-10.8°C 8.0°F-13.3°C 82% 4.0 mph NW6.4 kmh NW 9.0 mph14.5 kmh 30.46 in1031.5 mb 0.00 in0.0 mm 0.00 in0.0 mm 0.00 in0.0 mm
11:52 PM 12.4°F-10.9°C 8.0°F-13.3°C 82% 4.0 mph NW6.4 kmh NW 9.0 mph14.5 kmh 30.47 in1031.8 mb 0.00 in0.0 mm 0.00 in0.0 mm 0.00 in0.0 mm
11:54 PM 12.3°F-10.9°C 7.9°F-13.4°C 82% 4.0 mph NW6.4 kmh NW 9.0 mph14.5 kmh 30.47 in1031.8 mb 0.00 in0.0 mm 0.00 in0.0 mm 0.00 in0.0 mm
11:56 PM 12.3°F-10.9°C 7.9°F-13.4°C 82% 4.0 mph NW6.4 kmh NW 10.0 mph16.1 kmh 30.47 in1031.8 mb 0.00 in0.0 mm 0.00 in0.0 mm 0.00 in0.0 mm
11:58 PM 12.2°F-11.0°C 7.8°F-13.4°C 82% 4.0 mph NW6.4 kmh NW 10.0 mph16.1 kmh 30.47 in1031.8 mb 0.00 in0.0 mm 0.00 in0.0 mm 0.00 in0.0 mm